M I D A S
Marine Information and Data Acquisition System
Tripno 613 of the Zeeleeuw from 2003-12-09 07:40:17 to 2003-12-09 16:15:26
Back to CruiseResearch ActivitiesStationsMapUnderway DataData graphs

EquipmentUnitsComment
TimeDGPSUTC
LatitudeDGPSDM.mWGS84
LongitudeDGPSDM.mWGS84
TemperatureSBE03/SBE38deg celciusITS90
ConductivitySBE21S/mITS90
SalinitySBE21 Practical Salinity Units
ChlorophylAChelsea fluorimeterg/lCalibrated in Aceton
Missing or incorrect values are displayed as -999
Sea surface data collected by the RV Zeeleeuw from 2003-12-09 07:40:17 to 2003-12-09 16:15:26
                                                                                    Next 1000 lines
Time Latitude Longitude Temperature Conductivity Salinity ChlorophylA
2003-12-09 07:40:24 51°13.534 2°56.235 6.44063 1.434707 13.224043 5.657247
2003-12-09 07:40:28 51°13.534 2°56.234 6.460058 1.465424 13.53467 5.421281
2003-12-09 07:40:36 51°13.534 2°56.233 6.472197 1.596088 14.846552 5.117896
2003-12-09 07:40:40 51°13.534 2°56.232 6.472197 1.596088 14.846552 5.117896
2003-12-09 07:40:44 51°13.535 2°56.232 6.450147 1.721459 16.102885 4.848221
2003-12-09 07:40:48 51°13.536 2°56.232 6.429526 1.908613 18.00347 4.645965
2003-12-09 07:40:53 51°13.538 2°56.232 6.408452 2.029589 19.243937 4.544836
2003-12-09 07:41:00 51°13.54 2°56.232 6.384941 2.150397 20.491754 4.443708
2003-12-09 07:41:04 51°13.542 2°56.232 6.378342 2.226894 21.286443 4.376289
2003-12-09 07:41:09 51°13.544 2°56.232 6.378342 2.226894 21.286443 4.376289
2003-12-09 07:41:14 51°13.545 2°56.232 6.378144 2.255374 21.58934 4.477418
2003-12-09 07:41:20 51°13.546 2°56.233 6.372884 2.193898 20.952699 4.645965
2003-12-09 07:41:25 51°13.546 2°56.233 6.375216 2.1131 20.123296 4.612255
2003-12-09 07:41:29 51°13.545 2°56.233 6.366681 2.064987 19.633699 4.612255
2003-12-09 07:41:32 51°13.545 2°56.233 6.362761 2.03022 19.27889 4.645965
2003-12-09 07:41:40 51°13.543 2°56.233 6.362761 2.03022 19.27889 4.645965
2003-12-09 07:41:44 51°13.542 2°56.234 6.368766 2.017301 19.148875 4.645965
2003-12-09 07:41:49 51°13.541 2°56.235 6.359187 2.026859 19.249841 4.612255
2003-12-09 07:41:52 51°13.539 2°56.235 6.360428 2.024548 19.22589 4.578546
2003-12-09 07:42:00 51°13.536 2°56.237 6.357698 2.032531 19.312995 4.612255
2003-12-09 07:42:04 51°13.535 2°56.239 6.360329 2.026649 19.253449 4.578546
2003-12-09 07:42:09 51°13.532 2°56.24 6.360329 2.026649 19.253449 4.578546
2003-12-09 07:42:16 51°13.53 2°56.242 6.391737 2.028224 19.270751 4.578546
2003-12-09 07:42:20 51°13.528 2°56.242 6.422535 2.022238 19.20964 4.612255
2003-12-09 07:42:24 51°13.527 2°56.243 6.435723 2.024968 19.239399 4.544836
2003-12-09 07:42:28 51°13.527 2°56.244 6.463973 2.032111 19.31396 4.511127
2003-12-09 07:42:35 51°13.526 2°56.244 6.472742 2.062992 19.6287 4.34258
2003-12-09 07:42:40 51°13.526 2°56.244 6.472742 2.062992 19.6287 4.34258
2003-12-09 07:42:44 51°13.525 2°56.244 6.473733 2.127388 20.286725 4.005486
2003-12-09 07:42:49 51°13.526 2°56.244 6.479975 2.253693 21.59655 3.80323
2003-12-09 07:42:55 51°13.526 2°56.244 6.478786 2.343244 22.523219 3.702101
2003-12-09 07:43:00 51°13.527 2°56.244 6.477895 2.417465 23.294018 3.668392
2003-12-09 07:43:05 51°13.527 2°56.244 6.494092 2.474874 23.894866 3.600973
2003-12-09 07:43:08 51°13.528 2°56.243 6.494092 2.474874 23.894866 3.600973
2003-12-09 07:43:13 51°13.529 2°56.241 6.497856 2.497482 24.129676 3.634683
2003-12-09 07:43:19 51°13.531 2°56.238 6.489337 2.50905 24.249944 3.600973
2003-12-09 07:43:24 51°13.533 2°56.236 6.495974 2.514939 24.310605 3.533554
2003-12-09 07:43:28 51°13.534 2°56.234 6.510928 2.511679 24.27238 3.634683
2003-12-09 07:43:35 51°13.536 2°56.23 6.493844 2.510942 24.25912 3.668392
2003-12-09 07:43:37 51°13.537 2°56.229 6.493844 2.510942 24.25912 3.668392
2003-12-09 07:43:45 51°13.539 2°56.225 6.499242 2.513571 24.285183 3.668392
2003-12-09 07:43:49 51°13.54 2°56.222 6.491714 2.518514 24.337608 3.634683
2003-12-09 07:43:53 51°13.541 2°56.22 6.489387 2.520197 24.351811 3.634683
2003-12-09 07:43:59 51°13.542 2°56.216 6.487504 2.523772 24.390959 3.634683
2003-12-09 07:44:04 51°13.543 2°56.213 6.48795 2.531134 24.469079 3.634683
2003-12-09 07:44:09 51°13.544 2°56.21 6.48795 2.531134 24.469079 3.634683
2003-12-09 07:44:14 51°13.545 2°56.207 6.490872 2.537128 24.533937 3.533554
2003-12-09 07:44:19 51°13.545 2°56.203 6.486217 2.536077 24.523996 3.600973
2003-12-09 07:44:24 51°13.546 2°56.2 6.497856 2.538495 24.550905 3.634683
2003-12-09 07:44:30 51°13.547 2°56.195 6.484929 2.539337 24.560453 3.567264
2003-12-09 07:44:35 51°13.548 2°56.192 6.483542 2.545962 24.632059 3.533554
2003-12-09 07:44:40 51°13.549 2°56.188 6.483542 2.545962 24.632059 3.533554
2003-12-09 07:44:45 51°13.55 2°56.184 6.474625 2.548276 24.656642 3.600973
2003-12-09 07:44:50 51°13.551 2°56.18 6.470661 2.558583 24.766184 3.499845
2003-12-09 07:44:54 51°13.552 2°56.177 6.456143 2.567417 24.860745 3.567264
2003-12-09 07:44:59 51°13.553 2°56.172 6.459116 2.567102 24.857389 3.533554
2003-12-09 07:45:05 51°13.554 2°56.168 6.456787 2.562369 24.809536 3.634683
2003-12-09 07:45:09 51°13.555 2°56.164 6.456787 2.562369 24.809536 3.634683
2003-12-09 07:45:14 51°13.556 2°56.16 6.457134 2.540178 24.577978 3.702101
2003-12-09 07:45:19 51°13.558 2°56.156 6.450692 2.521143 24.380105 3.702101
2003-12-09 07:45:25 51°13.559 2°56.151 6.446281 2.49233 24.079258 3.76952
2003-12-09 07:45:28 51°13.56 2°56.149 6.444397 2.473086 23.878317 3.76952
2003-12-09 07:45:35 51°13.562 2°56.143 6.447669 2.466567 23.811052 3.76952
2003-12-09 07:45:39 51°13.562 2°56.14 6.447669 2.466567 23.811052 3.76952
2003-12-09 07:45:44 51°13.563 2°56.136 6.43954 2.464885 23.795614 3.80323
2003-12-09 07:45:48 51°13.564 2°56.132 6.438995 2.464043 23.787894 3.80323
2003-12-09 07:45:55 51°13.566 2°56.126 6.435921 2.464674 23.798739 3.836939
2003-12-09 07:45:59 51°13.567 2°56.123 6.434384 2.465516 23.809435 3.836939
2003-12-09 07:46:05 51°13.568 2°56.118 6.433542 2.464254 23.796663 3.870648
2003-12-09 07:46:09 51°13.569 2°56.114 6.433542 2.464254 23.796663 3.870648
2003-12-09 07:46:14 51°13.57 2°56.11 6.43146 2.463518 23.79065 3.904358
2003-12-09 07:46:19 51°13.571 2°56.106 6.430319 2.466988 23.82801 3.938067
2003-12-09 07:46:25 51°13.572 2°56.101 6.430617 2.473087 23.895034 3.938067
2003-12-09 07:46:28 51°13.573 2°56.098 6.430022 2.482025 23.992205 3.971777
2003-12-09 07:46:35 51°13.575 2°56.093 6.428832 2.486862 24.044118 4.005486
2003-12-09 07:46:39 51°13.576 2°56.089 6.428832 2.486862 24.044118 4.005486
2003-12-09 07:46:44 51°13.577 2°56.085 6.431906 2.494117 24.122319 4.005486
2003-12-09 07:46:49 51°13.578 2°56.082 6.435029 2.500322 24.188786 3.971777
2003-12-09 07:46:55 51°13.579 2°56.077 6.428237 2.511364 24.307273 4.005486
2003-12-09 07:46:59 51°13.58 2°56.074 6.424767 2.520618 24.406835 3.971777
2003-12-09 07:47:05 51°13.581 2°56.07 6.427989 2.530503 24.510714 4.072905
2003-12-09 07:47:08 51°13.582 2°56.068 6.427989 2.530503 24.510714 4.072905
2003-12-09 07:47:15 51°13.583 2°56.064 6.42318 2.539968 24.610778 4.140324
2003-12-09 07:47:20 51°13.584 2°56.061 6.429972 2.552694 24.746832 4.140324
2003-12-09 07:47:24 51°13.585 2°56.058 6.434186 2.563947 24.867919 4.275161
2003-12-09 07:47:28 51°13.585 2°56.056 6.430914 2.573203 24.967164 4.308871
2003-12-09 07:47:35 51°13.587 2°56.051 6.426799 2.584456 25.088401 4.34258
2003-12-09 07:47:40 51°13.588 2°56.048 6.426799 2.584456 25.088401 4.34258
2003-12-09 07:47:45 51°13.589 2°56.045 6.428435 2.590452 25.152978 4.241452
2003-12-09 07:47:49 51°13.59 2°56.042 6.435624 2.593817 25.186998 4.308871
2003-12-09 07:47:55 51°13.591 2°56.039 6.433492 2.600339 25.255323 4.34258
2003-12-09 07:47:59 51°13.592 2°56.037 6.431162 2.610647 25.36663 4.207742
2003-12-09 07:48:05 51°13.593 2°56.033 6.430369 2.619798 25.465646 4.241452
2003-12-09 07:48:10 51°13.594 2°56.031 6.430369 2.619798 25.465646 4.241452
2003-12-09 07:48:14 51°13.594 2°56.028 6.429675 2.631579 25.590269 4.241452
2003-12-09 07:48:20 51°13.596 2°56.025 6.433195 2.644728 25.730227 4.241452
2003-12-09 07:48:24 51°13.597 2°56.023 6.425262 2.636312 25.640874 4.207742
2003-12-09 07:48:28 51°13.597 2°56.021 6.422783 2.661138 25.906476 4.207742
2003-12-09 07:48:34 51°13.599 2°56.018 6.42313 2.666398 25.963441 4.174033
2003-12-09 07:48:40 51°13.6 2°56.015 6.42313 2.666398 25.963441 4.174033
2003-12-09 07:48:44 51°13.601 2°56.014 6.42199 2.668607 25.985799 4.275161
2003-12-09 07:48:50 51°13.602 2°56.012 6.420007 2.668712 25.987575 4.308871
2003-12-09 07:48:55 51°13.602 2°56.01 6.414651 2.669764 26.002094 4.409999
2003-12-09 07:48:59 51°13.603 2°56.009 6.4208 2.661979 25.920674 4.443708
2003-12-09 07:49:03 51°13.604 2°56.008 6.413362 2.668502 25.991175 4.376289
2003-12-09 07:49:08 51°13.604 2°56.007 6.413362 2.668502 25.991175 4.376289
2003-12-09 07:49:13 51°13.605 2°56.006 6.411974 2.664189 25.946278 4.477418
2003-12-09 07:49:19 51°13.606 2°56.004 6.413015 2.674814 26.06271 4.477418
2003-12-09 07:49:24 51°13.606 2°56.004 6.412817 2.67576 26.073509 4.477418
2003-12-09 07:49:28 51°13.607 2°56.003 6.411924 2.676918 26.086565 4.511127
2003-12-09 07:49:35 51°13.607 2°56.002 6.413808 2.677128 26.090126 4.612255
2003-12-09 07:49:39 51°13.607 2°56.002 6.413808 2.677128 26.090126 4.612255
2003-12-09 07:49:45 51°13.607 2°56.001 6.410932 2.680389 26.127048 4.544836
2003-12-09 07:49:48 51°13.607 2°56.001 6.411081 2.681546 26.138801 4.612255
2003-12-09 07:49:54 51°13.607 2°56.001 6.409345 2.683966 26.166055 4.578546
2003-12-09 07:50:00 51°13.607 2°56.001 6.409742 2.687753 26.206672 4.544836
2003-12-09 07:50:04 51°13.607 2°56.001 6.412073 2.689016 26.220869 4.544836
2003-12-09 07:50:10 51°13.607 2°56 6.412073 2.689016 26.220869 4.544836
2003-12-09 07:50:15 51°13.608 2°56 6.413263 2.690383 26.234883 4.612255
2003-12-09 07:50:20 51°13.608 2°56 6.414899 2.691646 26.24974 4.612255
2003-12-09 07:50:24 51°13.608 2°56 6.417279 2.692698 26.261685 4.612255
2003-12-09 07:50:29 51°13.608 2°55.999 6.423527 2.692803 26.262813 4.612255
2003-12-09 07:50:35 51°13.608 2°55.999 6.424866 2.692172 26.254726 4.612255
2003-12-09 07:50:39 51°13.608 2°55.999 6.424866 2.692172 26.254726 4.612255
2003-12-09 07:50:43 51°13.608 2°55.998 6.422535 2.693224 26.264698 4.544836
2003-12-09 07:50:48 51°13.608 2°55.998 6.419808 2.703639 26.376465 4.511127
2003-12-09 07:50:55 51°13.608 2°55.997 6.425262 2.716053 26.507105 4.477418
2003-12-09 07:50:59 51°13.608 2°55.997 6.425014 2.724049 26.590331 4.443708
2003-12-09 07:51:05 51°13.609 2°55.996 6.424915 2.725838 26.607547 4.443708
2003-12-09 07:51:10 51°13.609 2°55.995 6.424915 2.725838 26.607547 4.443708
2003-12-09 07:51:13 51°13.609 2°55.995 6.424419 2.729099 26.643921 4.443708
2003-12-09 07:51:20 51°13.609 2°55.995 6.425709 2.730993 26.664271 4.544836
2003-12-09 07:51:25 51°13.609 2°55.994 6.425064 2.731835 26.671981 4.409999
2003-12-09 07:51:30 51°13.609 2°55.994 6.425014 2.73436 26.699117 4.477418
2003-12-09 07:51:35 51°13.609 2°55.993 6.427196 2.735938 26.716078 4.477418
2003-12-09 07:51:39 51°13.609 2°55.993 6.427196 2.735938 26.716078 4.477418
2003-12-09 07:51:45 51°13.609 2°55.993 6.424767 2.736569 26.722195 4.477418
2003-12-09 07:51:48 51°13.609 2°55.992 6.427642 2.73699 26.726718 4.443708
2003-12-09 07:51:54 51°13.61 2°55.992 6.426155 2.738147 26.737819 4.477418
2003-12-09 07:52:00 51°13.61 2°55.991 6.427444 2.738989 26.747536 4.409999
2003-12-09 07:52:05 51°13.61 2°55.991 6.427295 2.739305 26.750259 4.409999
2003-12-09 07:52:08 51°13.611 2°55.991 6.427295 2.739305 26.750259 4.409999
2003-12-09 07:52:14 51°13.611 2°55.99 6.426353 2.739726 26.755453 4.477418
2003-12-09 07:52:20 51°13.612 2°55.989 6.425609 2.739515 26.75386 4.477418
2003-12-09 07:52:24 51°13.612 2°55.988 6.424767 2.736885 26.725587 4.443708
2003-12-09 07:52:30 51°13.613 2°55.987 6.426254 2.737095 26.726511 4.477418
2003-12-09 07:52:35 51°13.614 2°55.986 6.427593 2.738463 26.741212 4.443708
2003-12-09 07:52:40 51°13.614 2°55.984 6.427593 2.738463 26.741212 4.443708
2003-12-09 07:52:45 51°13.616 2°55.983 6.429129 2.740778 26.766093 4.544836
2003-12-09 07:52:48 51°13.616 2°55.982 6.43022 2.738358 26.74075 4.477418
2003-12-09 07:52:55 51°13.618 2°55.979 6.427593 2.728994 26.639457 4.443708
2003-12-09 07:52:58 51°13.619 2°55.978 6.429179 2.741935 26.778535 4.443708
2003-12-09 07:53:05 51°13.62 2°55.974 6.428733 2.741514 26.77334 4.477418
2003-12-09 07:53:09 51°13.621 2°55.973 6.428733 2.741514 26.77334 4.477418
2003-12-09 07:53:12 51°13.622 2°55.971 6.427047 2.741409 26.772879 4.477418
2003-12-09 07:53:20 51°13.624 2°55.967 6.436417 2.742251 26.781928 4.511127
2003-12-09 07:53:25 51°13.626 2°55.964 6.435029 2.742356 26.783729 4.409999
2003-12-09 07:53:30 51°13.628 2°55.96 6.435921 2.743303 26.793239 4.409999
2003-12-09 07:53:34 51°13.629 2°55.958 6.4326 2.745933 26.82152 4.409999
2003-12-09 07:53:38 51°13.63 2°55.955 6.4326 2.745933 26.82152 4.409999
2003-12-09 07:53:44 51°13.633 2°55.95 6.433294 2.754982 26.917489 4.376289
2003-12-09 07:53:49 51°13.635 2°55.946 6.430716 2.762242 26.99357 4.409999
2003-12-09 07:53:55 51°13.637 2°55.941 6.431013 2.765293 27.025052 4.34258
2003-12-09 07:53:58 51°13.638 2°55.938 6.43022 2.768871 27.064229 4.376289
2003-12-09 07:54:04 51°13.641 2°55.932 6.427246 2.768765 27.063097 4.409999
2003-12-09 07:54:08 51°13.643 2°55.928 6.427246 2.768765 27.063097 4.409999
2003-12-09 07:54:13 51°13.645 2°55.923 6.425064 2.768344 27.058567 4.443708
2003-12-09 07:54:19 51°13.648 2°55.916 6.425213 2.767397 27.049052 4.443708
2003-12-09 07:54:24 51°13.651 2°55.911 6.42085 2.76624 27.037949 4.477418
2003-12-09 07:54:28 51°13.653 2°55.905 6.41847 2.764451 27.018699 4.409999
2003-12-09 07:54:35 51°13.658 2°55.896 6.41956 2.76361 27.011669 4.443708
2003-12-09 07:54:40 51°13.661 2°55.888 6.41956 2.76361 27.011669 4.443708
2003-12-09 07:54:44 51°13.664 2°55.881 6.416734 2.76382 27.015286 4.477418
2003-12-09 07:54:49 51°13.668 2°55.873 6.41242 2.765819 27.038833 4.443708
2003-12-09 07:54:53 51°13.671 2°55.866 6.411676 2.767608 27.059443 4.511127
2003-12-09 07:55:00 51°13.676 2°55.852 6.405526 2.767608 27.060121 4.511127
2003-12-09 07:55:04 51°13.68 2°55.845 6.403394 2.765188 27.036775 4.578546
2003-12-09 07:55:08 51°13.683 2°55.837 6.403394 2.765188 27.036775 4.578546
2003-12-09 07:55:15 51°13.69 2°55.822 6.400467 2.759506 26.97764 4.578546
2003-12-09 07:55:19 51°13.694 2°55.814 6.401707 2.750984 26.887945 4.612255
2003-12-09 07:55:24 51°13.699 2°55.803 6.395656 2.740147 26.772038 4.645965
2003-12-09 07:55:28 51°13.703 2°55.794 6.391638 2.722156 26.581299 4.713383
2003-12-09 07:55:32 51°13.707 2°55.785 6.386975 2.705007 26.40106 4.814512
2003-12-09 07:55:40 51°13.716 2°55.766 6.386975 2.705007 26.40106 4.814512
2003-12-09 07:55:44 51°13.721 2°55.757 6.39263 2.688595 26.226205 4.780802
2003-12-09 07:55:49 51°13.726 2°55.745 6.403047 2.676707 26.09999 4.747093
2003-12-09 07:55:53 51°13.731 2°55.736 6.404088 2.66766 26.004939 4.814512
2003-12-09 07:56:00 51°13.741 2°55.72 6.405874 2.662085 25.949725 4.780802
2003-12-09 07:56:04 51°13.746 2°55.711 6.403195 2.655668 25.881598 4.780802
2003-12-09 07:56:08 51°13.752 2°55.703 6.403195 2.655668 25.881598 4.780802
2003-12-09 07:56:12 51°13.758 2°55.694 6.405923 2.646727 25.783861 4.848221
2003-12-09 07:56:20 51°13.771 2°55.678 6.400219 2.622848 25.523783 4.88193
2003-12-09 07:56:24 51°13.777 2°55.67 6.399178 2.598025 25.256534 4.983059
2003-12-09 07:56:28 51°13.784 2°55.663 6.391936 2.579198 25.05489 4.91564
2003-12-09 07:56:34 51°13.794 2°55.653 6.380674 2.568996 24.946044 4.983059
2003-12-09 07:56:40 51°13.805 2°55.643 6.380674 2.568996 24.946044 4.983059
2003-12-09 07:56:45 51°13.814 2°55.635 6.368666 2.55953 24.845106 4.983059
2003-12-09 07:56:48 51°13.82 2°55.631 6.365639 2.546805 24.713193 5.016768
2003-12-09 07:56:54 51°13.832 2°55.622 6.369113 2.531766 24.555462 5.185315
2003-12-09 07:57:00 51°13.844 2°55.613 6.367922 2.497693 24.195976 5.252734
2003-12-09 07:57:04 51°13.851 2°55.608 6.345885 2.463308 23.836697 5.353862
2003-12-09 07:57:10 51°13.863 2°55.6 6.345885 2.463308 23.836697 5.353862
2003-12-09 07:57:15 51°13.873 2°55.593 6.33526 2.445223 23.651911 5.387571
2003-12-09 07:57:20 51°13.883 2°55.587 6.333026 2.4284 23.474693 5.387571
2003-12-09 07:57:24 51°13.89 2°55.581 6.332778 2.402431 23.201345 5.45499
2003-12-09 07:57:30 51°13.902 2°55.574 6.332579 2.378987 22.959051 5.421281
2003-12-09 07:57:32 51°13.906 2°55.571 6.325479 2.377936 22.953688 5.286443
2003-12-09 07:57:40 51°13.922 2°55.56 6.325479 2.377936 22.953688 5.286443
2003-12-09 07:57:45 51°13.932 2°55.553 6.32533 2.415258 23.353574 5.117896
2003-12-09 07:57:48 51°13.938 2°55.549 6.330146 2.455527 23.783912 4.814512
2003-12-09 07:57:52 51°13.946 2°55.544 6.324138 2.52146 24.488683 4.679674
2003-12-09 07:58:00 51°13.961 2°55.533 6.321108 2.58288 25.147082 4.612255
2003-12-09 07:58:04 51°13.969 2°55.527 6.319917 2.621902 25.566813 4.477418
2003-12-09 07:58:10 51°13.981 2°55.519 6.319917 2.621902 25.566813 4.477418
2003-12-09 07:58:12 51°13.985 2°55.516 6.319718 2.678181 26.171513 4.376289
2003-12-09 07:58:20 51°14.001 2°55.505 6.322449 2.710899 26.524135 4.34258
2003-12-09 07:58:25 51°14.011 2°55.498 6.309089 2.738885 26.826318 4.308871
2003-12-09 07:58:28 51°14.017 2°55.494 6.306854 2.745513 26.899819 4.34258
2003-12-09 07:58:35 51°14.031 2°55.484 6.307202 2.747933 26.92795 4.241452
2003-12-09 07:58:40 51°14.041 2°55.477 6.307202 2.747933 26.92795 4.241452
2003-12-09 07:58:45 51°14.051 2°55.47 6.314354 2.756982 27.025586 4.174033
2003-12-09 07:58:49 51°14.059 2°55.464 6.316192 2.756982 27.029659 4.106614
2003-12-09 07:58:53 51°14.067 2°55.459 6.317582 2.757508 27.037376 4.039195
2003-12-09 07:58:59 51°14.079 2°55.45 6.320562 2.756666 27.030326 4.005486
2003-12-09 07:59:04 51°14.089 2°55.443 6.323591 2.755088 27.013967 4.005486
2003-12-09 07:59:09 51°14.1 2°55.435 6.323591 2.755088 27.013967 4.005486
2003-12-09 07:59:12 51°14.106 2°55.43 6.330146 2.75351 26.994896 4.005486
2003-12-09 07:59:20 51°14.123 2°55.417 6.34519 2.752563 26.983997 4.005486
2003-12-09 07:59:25 51°14.134 2°55.409 6.362264 2.751195 26.967203 4.005486
2003-12-09 07:59:29 51°14.143 2°55.402 6.376903 2.750459 26.957224 4.039195
2003-12-09 07:59:32 51°14.149 2°55.397 6.38256 2.753931 26.991979 4.140324
2003-12-09 07:59:40 51°14.167 2°55.382 6.38256 2.753931 26.991979 4.140324
2003-12-09 07:59:45 51°14.178 2°55.373 6.382907 2.755614 27.004042 4.34258
2003-12-09 07:59:49 51°14.187 2°55.364 6.375961 2.757403 27.012489 4.578546
2003-12-09 07:59:53 51°14.195 2°55.355 6.375961 2.759507 27.025691 4.679674
2003-12-09 07:59:59 51°14.207 2°55.341 6.364994 2.760348 27.025954 4.747093
2003-12-09 08:00:04 51°14.217 2°55.329 6.35606 2.75877 27.003523 4.713383
2003-12-09 08:00:09 51°14.227 2°55.316 6.35606 2.75877 27.003523 4.713383
2003-12-09 08:00:13 51°14.235 2°55.305 6.348764 2.754667 26.958629 4.713383
2003-12-09 08:00:19 51°14.246 2°55.288 6.345587 2.750563 26.91577 4.780802
2003-12-09 08:00:24 51°14.254 2°55.273 6.338438 2.745829 26.867465 4.780802
2003-12-09 08:00:29 51°14.263 2°55.258 6.321357 2.737832 26.786725 4.747093
2003-12-09 08:00:33 51°14.27 2°55.245 6.318327 2.721314 26.612913 4.645965
2003-12-09 08:00:39 51°14.28 2°55.226 6.318327 2.721314 26.612913 4.645965
2003-12-09 08:00:45 51°14.29 2°55.207 6.311076 2.699326 26.382356 4.645965
2003-12-09 08:00:48 51°14.295 2°55.197 6.309189 2.676813 26.144343 4.679674
2003-12-09 08:00:55 51°14.308 2°55.173 6.301837 2.641993 25.778376 4.612255
2003-12-09 08:00:59 51°14.315 2°55.159 6.293888 2.611173 25.454407 4.612255
2003-12-09 08:01:04 51°14.324 2°55.142 6.286535 2.59487 25.284894 4.645965
2003-12-09 08:01:09 51°14.332 2°55.124 6.286535 2.59487 25.284894 4.645965
2003-12-09 08:01:13 51°14.34 2°55.11 6.280572 2.587192 25.205867 4.612255
2003-12-09 08:01:19 51°14.351 2°55.088 6.275155 2.585825 25.19313 4.612255
2003-12-09 08:01:25 51°14.363 2°55.068 6.275851 2.585089 25.191576 4.612255
2003-12-09 08:01:30 51°14.374 2°55.052 6.276248 2.600024 25.356001 4.578546
2003-12-09 08:01:35 51°14.386 2°55.037 6.267253 2.625584 25.636526 4.612255
2003-12-09 08:01:39 51°14.396 2°55.026 6.267253 2.625584 25.636526 4.612255
2003-12-09 08:01:44 51°14.409 2°55.013 6.258305 2.653881 25.944351 4.612255
2003-12-09 08:01:49 51°14.423 2°55.001 6.244086 2.688175 26.313979 4.578546
2003-12-09 08:01:54 51°14.436 2°54.989 6.220663 2.717843 26.636362 4.544836
2003-12-09 08:01:59 51°14.45 2°54.977 6.206734 2.749828 26.984304 4.511127
2003-12-09 08:02:04 51°14.463 2°54.963 6.196783 2.780131 27.316728 4.511127
2003-12-09 08:02:09 51°14.477 2°54.95 6.196783 2.780131 27.316728 4.511127
2003-12-09 08:02:13 51°14.487 2°54.938 6.212008 2.809594 27.642739 4.477418
2003-12-09 08:02:18 51°14.5 2°54.924 6.222603 2.834849 27.92932 4.409999
2003-12-09 08:02:24 51°14.515 2°54.905 6.237274 2.859159 28.205502 4.34258
2003-12-09 08:02:29 51°14.528 2°54.888 6.25224 2.893468 28.589744 4.34258
2003-12-09 08:02:33 51°14.537 2°54.874 6.263724 2.924096 28.930324 4.308871
2003-12-09 08:02:40 51°14.554 2°54.848 6.263724 2.924096 28.930324 4.308871
2003-12-09 08:02:45 51°14.565 2°54.829 6.286733 2.94883 29.196817 4.207742
2003-12-09 08:02:49 51°14.575 2°54.813 6.327266 2.971987 29.443336 4.207742
2003-12-09 08:02:54 51°14.586 2°54.793 6.370006 2.984619 29.571846 4.106614
2003-12-09 08:03:00 51°14.6 2°54.769 6.4026 2.992513 29.645537 4.106614
2003-12-09 08:03:05 51°14.612 2°54.75 6.419957 2.998092 29.695362 4.174033
2003-12-09 08:03:09 51°14.622 2°54.735 6.419957 2.998092 29.695362 4.174033
2003-12-09 08:03:13 51°14.632 2°54.72 6.434236 3.013356 29.843606 4.376289
2003-12-09 08:03:18 51°14.645 2°54.702 6.446975 3.033673 30.034998 4.308871
2003-12-09 08:03:24 51°14.66 2°54.681 6.468333 3.064308 30.341387 4.376289
2003-12-09 08:03:29 51°14.673 2°54.663 6.486662 3.085469 30.547026 4.275161
2003-12-09 08:03:33 51°14.684 2°54.649 6.501966 3.108421 30.779867 4.106614
2003-12-09 08:03:40 51°14.702 2°54.623 6.501966 3.108421 30.779867 4.106614
2003-12-09 08:03:45 51°14.715 2°54.604 6.506621 3.122004 30.910058 4.207742
2003-12-09 08:03:49 51°14.726 2°54.587 6.512513 3.138429 31.074442 4.207742
2003-12-09 08:03:55 51°14.742 2°54.563 6.516028 3.157698 31.269961 4.174033
2003-12-09 08:04:00 51°14.755 2°54.544 6.517068 3.170965 31.399686 4.072905
2003-12-09 08:04:05 51°14.769 2°54.525 6.520533 3.179915 31.486778 4.039195
2003-12-09 08:04:09 51°14.78 2°54.51 6.520533 3.179915 31.486778 4.039195
2003-12-09 08:04:13 51°14.791 2°54.496 6.523256 3.187497 31.561214 3.971777
2003-12-09 08:04:18 51°14.806 2°54.479 6.5239 3.195816 31.646093 4.106614
2003-12-09 08:04:24 51°14.824 2°54.459 6.529741 3.201081 31.700659 4.140324
2003-12-09 08:04:29 51°14.839 2°54.443 6.53667 3.204767 31.737905 4.140324
2003-12-09 08:04:33 51°14.852 2°54.431 6.544341 3.205609 31.743176 4.174033
2003-12-09 08:04:37 51°14.864 2°54.418 6.544341 3.205609 31.743176 4.174033
2003-12-09 08:04:44 51°14.885 2°54.396 6.546964 3.208347 31.771613 4.140324
2003-12-09 08:04:49 51°14.9 2°54.379 6.551912 3.210032 31.786119 4.207742
2003-12-09 08:04:54 51°14.915 2°54.362 6.556613 3.211085 31.793695 4.275161
2003-12-09 08:05:00 51°14.931 2°54.34 6.559779 3.210874 31.784238 4.34258
2003-12-09 08:05:05 51°14.945 2°54.321 6.557998 3.213823 31.811796 4.34258
2003-12-09 08:05:09 51°14.955 2°54.305 6.557998 3.213823 31.811796 4.34258
2003-12-09 08:05:15 51°14.971 2°54.282 6.555574 3.216455 31.837478 4.477418
2003-12-09 08:05:20 51°14.984 2°54.262 6.557305 3.219088 31.863158 4.544836
2003-12-09 08:05:23 51°14.992 2°54.25 6.555871 3.221089 31.881113 4.544836
2003-12-09 08:05:29 51°15.007 2°54.225 6.554089 3.222458 31.893732 4.612255
2003-12-09 08:05:35 51°15.022 2°54.201 6.564083 3.224669 31.91718 4.679674
2003-12-09 08:05:39 51°15.032 2°54.184 6.564083 3.224669 31.91718 4.679674
2003-12-09 08:05:43 51°15.042 2°54.168 6.557157 3.224985 31.920644 4.713383
2003-12-09 08:05:47 51°15.052 2°54.15 6.552951 3.225091 31.921798 4.780802
2003-12-09 08:05:54 51°15.071 2°54.123 6.557157 3.225617 31.929165 4.848221
2003-12-09 08:05:59 51°15.084 2°54.104 6.551516 3.22488 31.920286 4.814512
2003-12-09 08:06:05 51°15.102 2°54.085 6.554436 3.225406 31.924465 4.848221
2003-12-09 08:06:09 51°15.115 2°54.074 6.554436 3.225406 31.924465 4.848221
2003-12-09 08:06:14 51°15.131 2°54.06 6.559829 3.226144 31.933344 4.780802
2003-12-09 08:06:18 51°15.144 2°54.051 6.579912 3.227091 31.944533 4.780802
2003-12-09 08:06:24 51°15.164 2°54.039 6.564232 3.227302 31.946045 4.747093
2003-12-09 08:06:29 51°15.18 2°54.029 6.56349 3.227407 31.947997 4.747093
2003-12-09 08:06:33 51°15.194 2°54.022 6.569278 3.223406 31.898548 4.814512
2003-12-09 08:06:40 51°15.217 2°54.009 6.569278 3.223406 31.898548 4.814512
2003-12-09 08:06:45 51°15.234 2°53.999 6.566507 3.220457 31.861459 5.084187
2003-12-09 08:06:50 51°15.251 2°53.99 6.575659 3.219193 31.843638 5.219024
2003-12-09 08:06:55 51°15.268 2°53.98 6.579517 3.222036 31.877973 5.219024
2003-12-09 08:06:59 51°15.282 2°53.974 6.586836 3.225617 31.918805 5.117896
2003-12-09 08:07:04 51°15.299 2°53.967 6.584166 3.227828 31.941452 5.016768
2003-12-09 08:07:09 51°15.316 2°53.962 6.584166 3.227828 31.941452 5.016768
2003-12-09 08:07:13 51°15.33 2°53.96 6.587084 3.230251 31.966407 4.848221
2003-12-09 08:07:20 51°15.355 2°53.959 6.585303 3.231198 31.972808 4.713383
2003-12-09 08:07:25 51°15.373 2°53.958 6.582583 3.232146 31.979207 4.713383
2003-12-09 08:07:29 51°15.387 2°53.959 6.579912 3.231619 31.969448 4.645965
2003-12-09 08:07:33 51°15.401 2°53.96 6.577885 3.23183 31.967768 4.612255
2003-12-09 08:07:39 51°15.422 2°53.96 6.577885 3.23183 31.967768 4.612255
2003-12-09 08:07:45 51°15.443 2°53.96 6.581545 3.232567 31.975048 4.645965
2003-12-09 08:07:48 51°15.454 2°53.96 6.581643 3.233515 31.985434 4.679674
2003-12-09 08:07:55 51°15.479 2°53.956 6.585303 3.23341 31.986673 4.780802
2003-12-09 08:08:00 51°15.497 2°53.953 6.587133 3.234358 31.998657 4.814512
2003-12-09 08:08:03 51°15.507 2°53.951 6.587628 3.235621 32.013306 4.949349
2003-12-09 08:08:09 51°15.529 2°53.946 6.587628 3.235621 32.013306 4.949349
2003-12-09 08:08:13 51°15.543 2°53.943 6.58743 3.236674 32.02405 4.91564
2003-12-09 08:08:19 51°15.564 2°53.939 6.590644 3.23857 32.044029 4.91564
2003-12-09 08:08:25 51°15.586 2°53.936 6.587529 3.239307 32.05131 4.848221
2003-12-09 08:08:28 51°15.597 2°53.936 6.59104 3.239518 32.05122 4.713383
2003-12-09 08:08:35 51°15.622 2°53.937 6.593858 3.239939 32.055038 4.645965
2003-12-09 08:08:40 51°15.639 2°53.939 6.593858 3.239939 32.055038 4.645965
2003-12-09 08:08:44 51°15.654 2°53.94 6.591633 3.241413 32.071999 4.511127
2003-12-09 08:08:49 51°15.672 2°53.941 6.588172 3.242045 32.077325 4.409999
2003-12-09 08:08:54 51°15.689 2°53.943 6.579764 3.241729 32.072262 4.308871
2003-12-09 08:08:59 51°15.707 2°53.945 6.579368 3.243309 32.087977 4.106614
2003-12-09 08:09:04 51°15.725 2°53.948 6.579912 3.242572 32.078297 3.938067
2003-12-09 08:09:08 51°15.739 2°53.95 6.579912 3.242572 32.078297 3.938067
2003-12-09 08:09:12 51°15.753 2°53.953 6.576401 3.244257 32.099167 3.80323
2003-12-09 08:09:19 51°15.778 2°53.96 6.580358 3.244362 32.103524 3.668392
2003-12-09 08:09:25 51°15.798 2°53.967 6.584067 3.245521 32.118628 3.634683
2003-12-09 08:09:30 51°15.815 2°53.974 6.581792 3.245626 32.123789 3.567264
2003-12-09 08:09:32 51°15.822 2°53.977 6.579368 3.245942 32.128055 3.432426
2003-12-09 08:09:39 51°15.846 2°53.988 6.579368 3.245942 32.128055 3.432426
2003-12-09 08:09:43 51°15.859 2°53.995 6.581643 3.247627 32.147336 3.432426
2003-12-09 08:09:48 51°15.876 2°54.003 6.57645 3.248469 32.15417 3.398717
2003-12-09 08:09:54 51°15.896 2°54.012 6.579368 3.249733 32.16803 3.331298
2003-12-09 08:10:00 51°15.917 2°54.021 6.582979 3.250365 32.174158 3.398717
2003-12-09 08:10:04 51°15.93 2°54.027 6.586441 3.250997 32.181089 3.466136
2003-12-09 08:10:09 51°15.947 2°54.036 6.586441 3.250997 32.181089 3.466136
2003-12-09 08:10:14 51°15.963 2°54.047 6.595985 3.251734 32.191584 3.466136
2003-12-09 08:10:20 51°15.982 2°54.06 6.603105 3.252577 32.200022 3.466136
2003-12-09 08:10:24 51°15.995 2°54.069 6.609482 3.254893 32.225439 3.567264
2003-12-09 08:10:29 51°16.011 2°54.079 6.6123 3.254367 32.216447 3.702101
2003-12-09 08:10:33 51°16.023 2°54.087 6.617985 3.256789 32.238998 3.735811
2003-12-09 08:10:40 51°16.044 2°54.099 6.617985 3.256789 32.238998 3.735811
2003-12-09 08:10:44 51°16.055 2°54.106 6.619913 3.257421 32.241104 3.870648
2003-12-09 08:10:49 51°16.069 2°54.115 6.62446 3.258474 32.246222 3.971777
2003-12-09 08:10:53 51°16.079 2°54.122 6.625597 3.26037 32.262989 4.241452
2003-12-09 08:11:00 51°16.097 2°54.135 6.630143 3.261423 32.270515 4.308871
2003-12-09 08:11:04 51°16.106 2°54.143 6.628068 3.26237 32.276081 4.443708
2003-12-09 08:11:09 51°16.117 2°54.153 6.628068 3.26237 32.276081 4.443708
2003-12-09 08:11:12 51°16.124 2°54.159 6.627969 3.262686 32.276328 4.477418
2003-12-09 08:11:20 51°16.14 2°54.175 6.632664 3.263424 32.279583 4.511127
2003-12-09 08:11:23 51°16.145 2°54.18 6.635184 3.262265 32.26367 4.612255
2003-12-09 08:11:29 51°16.156 2°54.191 6.639187 3.263529 32.275109 4.645965
2003-12-09 08:11:33 51°16.163 2°54.198 6.642448 3.263739 32.277417 4.747093
2003-12-09 08:11:39 51°16.173 2°54.207 6.642448 3.263739 32.277417 4.747093
2003-12-09 08:11:45 51°16.182 2°54.217 6.645412 3.264055 32.279272 4.88193
2003-12-09 08:11:50 51°16.189 2°54.224 6.647883 3.265108 32.289205 5.016768
2003-12-09 08:11:52 51°16.192 2°54.227 6.648328 3.264793 32.284134 5.219024
2003-12-09 08:12:00 51°16.203 2°54.238 6.650254 3.266056 32.294767 5.320153
2003-12-09 08:12:05 51°16.209 2°54.244 6.649167 3.266478 32.29697 5.45499
2003-12-09 08:12:09 51°16.213 2°54.249 6.649167 3.266478 32.29697 5.45499
2003-12-09 08:12:15 51°16.219 2°54.257 6.64897 3.267004 32.298719 5.4887
2003-12-09 08:12:19 51°16.223 2°54.261 6.650304 3.267636 32.305642 5.522409
2003-12-09 08:12:25 51°16.228 2°54.269 6.649069 3.266793 32.293998 5.556118
2003-12-09 08:12:28 51°16.231 2°54.272 6.651094 3.267636 32.302425 5.589828
2003-12-09 08:12:35 51°16.236 2°54.281 6.648822 3.267531 32.299663 5.657247
2003-12-09 08:12:40 51°16.239 2°54.286 6.648822 3.267531 32.299663 5.657247
2003-12-09 08:12:45 51°16.242 2°54.292 6.647043 3.267741 32.301166 5.623537
2003-12-09 08:12:48 51°16.243 2°54.295 6.648377 3.268689 32.312354 5.690956
2003-12-09 08:12:55 51°16.247 2°54.302 6.645561 3.268268 32.306935 5.623537
2003-12-09 08:13:00 51°16.248 2°54.307 6.644968 3.26911 32.31697 5.589828
2003-12-09 08:13:04 51°16.25 2°54.311 6.643238 3.268373 32.308893 5.522409
2003-12-09 08:13:09 51°16.251 2°54.316 6.643238 3.268373 32.308893 5.522409
2003-12-09 08:13:14 51°16.253 2°54.32 6.642349 3.2689 32.314662 5.556118
2003-12-09 08:13:20 51°16.254 2°54.325 6.640323 3.268478 32.311656 5.45499
2003-12-09 08:13:25 51°16.255 2°54.328 6.638149 3.268162 32.308998 5.387571
2003-12-09 08:13:29 51°16.255 2°54.33 6.638347 3.267741 32.305187 5.387571
2003-12-09 08:13:34 51°16.255 2°54.332 6.634789 3.268163 32.309803 5.084187
2003-12-09 08:13:40 51°16.255 2°54.333 6.634789 3.268163 32.309803 5.084187
2003-12-09 08:13:45 51°16.254 2°54.333 6.635629 3.268584 32.316832 4.88193
2003-12-09 08:13:49 51°16.254 2°54.333 6.632466 3.268478 32.317288 4.88193
2003-12-09 08:13:53 51°16.254 2°54.333 6.63128 3.267531 32.30851 4.814512
2003-12-09 08:14:00 51°16.253 2°54.331 6.629106 3.267952 32.313127 4.747093
2003-12-09 08:14:05 51°16.252 2°54.33 6.629254 3.268163 32.317045 4.612255
2003-12-09 08:14:10 51°16.251 2°54.328 6.629254 3.268163 32.317045 4.612255
2003-12-09 08:14:15 51°16.251 2°54.326 6.626783 3.268057 32.316695 4.612255
2003-12-09 08:14:20 51°16.25 2°54.325 6.627425 3.267952 32.318761 4.511127
2003-12-09 08:14:25 51°16.249 2°54.323 6.627228 3.267741 32.318062 4.376289
2003-12-09 08:14:28 51°16.249 2°54.322 6.6296 3.267636 32.318518 4.308871
2003-12-09 08:14:33 51°16.248 2°54.32 6.628265 3.26732 32.31747 4.308871
2003-12-09 08:14:39 51°16.247 2°54.318 6.628265 3.26732 32.31747 4.308871
2003-12-09 08:14:44 51°16.246 2°54.317 6.628463 3.267215 32.316315 4.308871
2003-12-09 08:14:50 51°16.245 2°54.314 6.628216 3.267215 32.316315 4.308871
2003-12-09 08:14:52 51°16.245 2°54.314 6.630489 3.26732 32.318275 4.376289
2003-12-09 08:14:57 51°16.244 2°54.312 6.631774 3.26711 32.315161 4.477418
2003-12-09 08:15:05 51°16.243 2°54.309 6.633454 3.267741 32.321282 4.443708
2003-12-09 08:15:09 51°16.242 2°54.307 6.633454 3.267741 32.321282 4.443708
2003-12-09 08:15:12 51°16.242 2°54.306 6.635925 3.267741 32.321282 4.511127
2003-12-09 08:15:20 51°16.241 2°54.303 6.635975 3.267741 32.321282 4.511127
2003-12-09 08:15:24 51°16.24 2°54.301 6.636469 3.267636 32.319323 4.544836
2003-12-09 08:15:29 51°16.239 2°54.299 6.633998 3.267636 32.318518 4.578546
2003-12-09 08:15:32 51°16.239 2°54.298 6.635975 3.267741 32.317257 4.578546
2003-12-09 08:15:37 51°16.238 2°54.296 6.635975 3.267741 32.317257 4.578546
2003-12-09 08:16:01 51°16.234 2°54.286 6.641311 3.268268 32.320614 4.814512
2003-12-09 08:16:08 51°16.233 2°54.283 6.640224 3.268479 32.322922 4.88193
2003-12-09 08:16:12 51°16.233 2°54.281 6.638495 3.268584 32.322466 5.016768
2003-12-09 08:16:17 51°16.232 2°54.279 6.641064 3.269005 32.327083 5.050477
2003-12-09 08:16:22 51°16.231 2°54.277 6.639829 3.268689 32.32362 4.983059
2003-12-09 08:16:27 51°16.23 2°54.275 6.639829 3.268689 32.32362 4.983059
2003-12-09 08:16:32 51°16.229 2°54.273 6.638446 3.268689 32.322011 5.050477
2003-12-09 08:16:37 51°16.228 2°54.271 6.639335 3.268794 32.32397 5.050477
2003-12-09 08:16:42 51°16.228 2°54.269 6.63889 3.268689 32.322011 5.219024
2003-12-09 08:16:48 51°16.227 2°54.267 6.638693 3.268794 32.323165 5.084187
2003-12-09 08:16:52 51°16.226 2°54.265 6.64062 3.269005 32.325473 5.117896
2003-12-09 08:16:58 51°16.225 2°54.263 6.64062 3.269005 32.325473 5.117896
2003-12-09 08:17:02 51°16.224 2°54.262 6.638347 3.269005 32.326278 5.151606
2003-12-09 08:17:08 51°16.223 2°54.26 6.640274 3.269005 32.327083 5.016768
2003-12-09 08:17:12 51°16.223 2°54.258 6.640175 3.268794 32.32397 4.983059
2003-12-09 08:17:17 51°16.222 2°54.257 6.641262 3.268794 32.32397 5.016768
2003-12-09 08:17:23 51°16.221 2°54.255 6.64057 3.2689 32.324319 4.983059
2003-12-09 08:17:28 51°16.22 2°54.254 6.64057 3.2689 32.324319 4.983059
2003-12-09 08:17:32 51°16.22 2°54.252 6.643535 3.269216 32.326976 5.151606
2003-12-09 08:17:37 51°16.219 2°54.251 6.641015 3.269321 32.327325 5.252734
2003-12-09 08:17:40 51°16.218 2°54.251 6.641015 3.269005 32.323863 5.084187
2003-12-09 08:17:48 51°16.217 2°54.249 6.642053 3.269321 32.328131 5.016768
2003-12-09 08:17:52 51°16.216 2°54.248 6.644029 3.269321 32.325715 5.050477
2003-12-09 08:17:57 51°16.215 2°54.246 6.644029 3.269321 32.325715 5.050477
2003-12-09 08:18:02 51°16.215 2°54.245 6.646598 3.269426 32.327675 4.949349
2003-12-09 08:18:07 51°16.214 2°54.244 6.645561 3.269426 32.327675 4.983059
2003-12-09 08:18:12 51°16.214 2°54.243 6.643041 3.269321 32.325715 4.983059
2003-12-09 08:18:16 51°16.213 2°54.243 6.64225 3.269321 32.325715 4.88193
2003-12-09 08:18:21 51°16.212 2°54.242 6.642744 3.269426 32.32526 4.780802
2003-12-09 08:18:28 51°16.211 2°54.241 6.642744 3.269426 32.32526 4.780802
2003-12-09 08:18:32 51°16.21 2°54.24 6.642547 3.269532 32.326414 4.814512
2003-12-09 08:18:38 51°16.21 2°54.24 6.642991 3.269532 32.326414 4.747093
2003-12-09 08:18:41 51°16.209 2°54.239 6.642448 3.269216 32.324561 4.747093
2003-12-09 08:18:48 51°16.208 2°54.239 6.643387 3.269532 32.328829 4.780802
2003-12-09 08:18:52 51°16.208 2°54.238 6.640719 3.269216 32.324561 4.713383
2003-12-09 08:18:56 51°16.207 2°54.238 6.640719 3.269216 32.324561 4.713383
2003-12-09 08:19:03 51°16.206 2°54.238 6.641855 3.269216 32.323757 4.679674
2003-12-09 08:19:08 51°16.205 2°54.237 6.641559 3.26911 32.324212 4.645965
2003-12-09 08:19:12 51°16.205 2°54.237 6.642547 3.269216 32.325366 4.612255
2003-12-09 08:19:16 51°16.204 2°54.237 6.640471 3.269637 32.329178 4.544836
2003-12-09 08:19:23 51°16.204 2°54.237 6.641015 3.269005 32.323863 4.544836
2003-12-09 08:19:28 51°16.203 2°54.237 6.641015 3.269005 32.323863 4.544836
2003-12-09 08:19:32 51°16.203 2°54.237 6.639631 3.269216 32.324561 4.511127
2003-12-09 08:19:38 51°16.202 2°54.237 6.639533 3.2689 32.321904 4.443708
2003-12-09 08:19:43 51°16.201 2°54.237 6.639335 3.2689 32.323514 4.409999
2003-12-09 08:19:48 51°16.201 2°54.237 6.640719 3.26911 32.325822 4.477418
2003-12-09 08:19:52 51°16.2 2°54.236 6.638742 3.268794 32.32236 4.409999
2003-12-09 08:19:56 51°16.2 2°54.236 6.638742 3.268794 32.32236 4.409999
2003-12-09 08:20:01 51°16.199 2°54.237 6.638198 3.269216 32.327781 4.34258
2003-12-09 08:20:08 51°16.199 2°54.237 6.638297 3.2689 32.325124 4.376289
2003-12-09 08:20:12 51°16.198 2°54.237 6.635827 3.269005 32.325473 4.34258
2003-12-09 08:20:18 51°16.198 2°54.237 6.637111 3.268794 32.323165 4.443708
2003-12-09 08:20:23 51°16.198 2°54.237 6.634789 3.268794 32.32397 4.34258
2003-12-09 08:20:28 51°16.198 2°54.238 6.634789 3.268794 32.32397 4.34258
2003-12-09 08:20:32 51°16.198 2°54.238 6.635036 3.269005 32.326278 4.376289
2003-12-09 08:20:38 51°16.198 2°54.238 6.633553 3.269005 32.327083 4.34258
2003-12-09 08:20:40 51°16.198 2°54.239 6.634937 3.269005 32.327083 4.34258
2003-12-09 08:20:48 51°16.198 2°54.239 6.634344 3.2689 32.326734 4.308871
2003-12-09 08:20:52 51°16.198 2°54.24 6.633504 3.268584 32.323271 4.275161
2003-12-09 08:20:58 51°16.198 2°54.24 6.633504 3.268584 32.323271 4.275161
2003-12-09 08:21:00 51°16.198 2°54.24 6.63385 3.268479 32.323727 4.308871
2003-12-09 08:21:07 51°16.198 2°54.241 6.635184 3.268584 32.325687 4.308871
2003-12-09 08:21:12 51°16.198 2°54.241 6.633454 3.268479 32.325337 4.34258
2003-12-09 08:21:16 51°16.198 2°54.241 6.635135 3.268795 32.32719 4.409999
2003-12-09 08:21:20 51°16.199 2°54.242 6.632466 3.268795 32.32719 4.376289
2003-12-09 08:21:27 51°16.199 2°54.242 6.632466 3.268795 32.32719 4.376289
2003-12-09 08:21:32 51°16.199 2°54.243 6.63296 3.268689 32.325231 4.409999
2003-12-09 08:21:36 51°16.199 2°54.243 6.633998 3.268795 32.32719 4.477418
2003-12-09 08:21:42 51°16.2 2°54.244 6.633207 3.268584 32.324881 4.477418
2003-12-09 08:21:47 51°16.2 2°54.245 6.631675 3.268795 32.32719 4.544836
2003-12-09 08:21:52 51°16.2 2°54.245 6.629946 3.268689 32.326841 4.544836
2003-12-09 08:21:57 51°16.201 2°54.246 6.629946 3.268689 32.326841 4.544836
2003-12-09 08:22:00 51°16.201 2°54.246 6.630143 3.268689 32.326841 4.477418
2003-12-09 08:22:08 51°16.201 2°54.247 6.628463 3.268268 32.323029 4.477418
2003-12-09 08:22:12 51°16.202 2°54.248 6.629501 3.268373 32.324183 4.511127
2003-12-09 08:22:17 51°16.202 2°54.249 6.630588 3.268479 32.326948 4.544836
2003-12-09 08:22:22 51°16.202 2°54.249 6.629797 3.268689 32.329257 4.511127
2003-12-09 08:22:28 51°16.203 2°54.25 6.629797 3.268689 32.329257 4.511127
2003-12-09 08:22:32 51°16.203 2°54.251 6.629007 3.268163 32.32429 4.578546
2003-12-09 08:22:38 51°16.204 2°54.253 6.632763 3.268689 32.330867 4.578546
2003-12-09 08:22:40 51°16.204 2°54.254 6.628068 3.268479 32.328558 4.511127
2003-12-09 08:22:47 51°16.207 2°54.259 6.629106 3.268268 32.326249 4.612255
2003-12-09 08:22:53 51°16.211 2°54.263 6.627228 3.268479 32.326948 4.612255
2003-12-09 08:22:57 51°16.214 2°54.266 6.627228 3.268479 32.326948 4.612255
2003-12-09 08:23:02 51°16.218 2°54.269 6.626882 3.268479 32.328558 4.612255
2003-12-09 08:23:08 51°16.225 2°54.273 6.627919 3.268268 32.327055 4.544836
2003-12-09 08:23:12 51°16.23 2°54.273 6.628414 3.268373 32.328209 4.578546
2003-12-09 08:23:17 51°16.237 2°54.273 6.6296 3.268479 32.330169 4.544836
2003-12-09 08:23:21 51°16.243 2°54.272 6.627623 3.268163 32.327511 4.578546
2003-12-09 08:23:27 51°16.251 2°54.267 6.627623 3.268163 32.327511 4.578546
2003-12-09 08:23:32 51°16.258 2°54.262 6.627821 3.268268 32.328665 4.645965
2003-12-09 08:23:38 51°16.267 2°54.253 6.628414 3.268268 32.328665 4.645965
2003-12-09 08:23:43 51°16.274 2°54.244 6.629155 3.268163 32.328316 4.645965
2003-12-09 08:23:48 51°16.28 2°54.232 6.629946 3.268057 32.327162 4.612255
2003-12-09 08:23:52 51°16.285 2°54.222 6.631577 3.264582 32.289869 4.511127
2003-12-09 08:23:58 51°16.292 2°54.204 6.631577 3.264582 32.289869 4.511127
2003-12-09 08:24:01 51°16.296 2°54.195 6.631132 3.26711 32.317576 4.645965
2003-12-09 08:24:08 51°16.304 2°54.169 6.632268 3.268268 32.328665 4.544836
2003-12-09 08:24:12 51°16.31 2°54.154 6.63469 3.268163 32.328316 4.578546
2003-12-09 08:24:17 51°16.317 2°54.134 6.63212 3.268163 32.326706 4.578546
2003-12-09 08:24:22 51°16.325 2°54.112 6.636321 3.268373 32.328209 4.612255
2003-12-09 08:24:27 51°16.332 2°54.09 6.636321 3.268373 32.328209 4.612255
2003-12-09 08:24:32 51°16.341 2°54.068 6.627425 3.268584 32.329713 4.612255
2003-12-09 08:24:37 51°16.35 2°54.045 6.630292 3.269111 32.335485 4.612255
2003-12-09 08:24:42 51°16.36 2°54.022 6.63296 3.269216 32.33664 4.645965
2003-12-09 08:24:48 51°16.373 2°53.995 6.626783 3.269005 32.33272 4.612255
2003-12-09 08:24:53 51°16.384 2°53.971 6.625597 3.268057 32.32233 4.679674
2003-12-09 08:24:58 51°16.394 2°53.946 6.625597 3.268057 32.32233 4.679674
2003-12-09 08:25:00 51°16.398 2°53.936 6.627425 3.269216 32.33664 4.612255
2003-12-09 08:25:08 51°16.414 2°53.895 6.636667 3.268689 32.329257 4.645965
2003-12-09 08:25:12 51°16.422 2°53.874 6.642349 3.269321 32.337794 4.679674
2003-12-09 08:25:18 51°16.435 2°53.843 6.64477 3.269216 32.337445 4.679674
2003-12-09 08:25:21 51°16.441 2°53.828 6.645363 3.269637 32.343675 4.409999
2003-12-09 08:25:50 51°16.501 2°53.674 6.652527 3.268794 32.32075 3.499845
2003-12-09 08:25:56 51°16.514 2°53.642 6.652428 3.271322 32.34845 3.398717
2003-12-09 08:26:00 51°16.522 2°53.621 6.657368 3.270795 32.341873 3.365007
2003-12-09 08:26:06 51°16.535 2°53.589 6.657813 3.270795 32.340263 3.19646
2003-12-09 08:26:11 51°16.545 2°53.563 6.662357 3.270164 32.331728 3.23017
2003-12-09 08:26:16 51°16.556 2°53.537 6.662357 3.270164 32.331728 3.23017
2003-12-09 08:26:20 51°16.565 2°53.516 6.667692 3.270164 32.330118 3.129042
2003-12-09 08:26:25 51°16.576 2°53.49 6.674211 3.270058 32.32655 3.162751
2003-12-09 08:26:29 51°16.585 2°53.47 6.681026 3.270163 32.32368 3.095332
2003-12-09 08:26:36 51°16.602 2°53.435 6.685668 3.267425 32.291274 3.19646
2003-12-09 08:26:40 51°16.611 2°53.415 6.694061 3.267109 32.285403 3.365007
2003-12-09 08:26:45 51°16.623 2°53.391 6.694061 3.267109 32.285403 3.365007
2003-12-09 08:26:51 51°16.638 2°53.362 6.698455 3.268268 32.293268 3.432426
2003-12-09 08:26:56 51°16.65 2°53.338 6.703441 3.271848 32.325244 3.499845
2003-12-09 08:27:00 51°16.66 2°53.319 6.70665 3.271954 32.321572 3.600973
2003-12-09 08:27:06 51°16.675 2°53.291 6.710697 3.272269 32.319404 3.668392
2003-12-09 08:27:11 51°16.687 2°53.267 6.715583 3.273323 32.326913 3.76952
2003-12-09 08:27:16 51°16.7 2°53.244 6.715583 3.273323 32.326913 3.76952
2003-12-09 08:27:21 51°16.712 2°53.22 6.718643 3.274165 32.332116 3.904358
2003-12-09 08:27:24 51°16.72 2°53.207 6.721209 3.274902 32.333754 3.971777
2003-12-09 08:27:30 51°16.735 2°53.179 6.723874 3.275323 32.335149 4.174033
2003-12-09 08:27:36 51°16.751 2°53.152 6.726687 3.275745 32.33574 4.308871
2003-12-09 08:27:40 51°16.761 2°53.134 6.729697 3.276798 32.343244 4.443708
2003-12-09 08:27:46 51°16.777 2°53.108 6.729697 3.276798 32.343244 4.443708
2003-12-09 08:27:48 51°16.783 2°53.099 6.733842 3.277008 32.341531 4.578546
2003-12-09 08:27:56 51°16.804 2°53.064 6.736703 3.277535 32.34488 4.679674
2003-12-09 08:28:00 51°16.814 2°53.046 6.740946 3.277851 32.345122 4.780802
2003-12-09 08:28:06 51°16.83 2°53.02 6.743364 3.278272 32.348926 4.814512
2003-12-09 08:28:10 51°16.84 2°53.003 6.744992 3.278693 32.351123 4.983059
2003-12-09 08:28:16 51°16.854 2°52.977 6.744992 3.278693 32.351123 4.983059
2003-12-09 08:28:20 51°16.864 2°52.96 6.748001 3.279325 32.353213 5.117896
2003-12-09 08:28:25 51°16.876 2°52.939 6.750073 3.279431 32.351955 5.286443
2003-12-09 08:28:29 51°16.885 2°52.922 6.753969 3.279957 32.355302 5.286443
2003-12-09 08:28:36 51°16.901 2°52.892 6.757669 3.280484 32.357847 5.387571
2003-12-09 08:28:40 51°16.911 2°52.874 6.773943 3.279852 32.348529 5.387571
2003-12-09 08:28:45 51°16.922 2°52.851 6.773943 3.279852 32.348529 5.387571
2003-12-09 08:28:49 51°16.932 2°52.833 6.785085 3.281116 32.359935 5.320153
2003-12-09 08:28:56 51°16.948 2°52.8 6.793318 3.281326 32.361435 5.252734
2003-12-09 08:29:00 51°16.958 2°52.782 6.799529 3.281537 32.358115 5.623537
2003-12-09 08:29:04 51°16.969 2°52.765 6.803718 3.282169 32.357795 6.230306
2003-12-09 08:29:09 51°16.982 2°52.745 6.810569 3.280167 32.3239 5.623537
2003-12-09 08:29:15 51°16.999 2°52.721 6.810569 3.280167 32.3239 5.623537
2003-12-09 08:29:20 51°17.013 2°52.702 6.814166 3.278166 32.291633 5.623537
2003-12-09 08:29:26 51°17.031 2°52.679 6.821557 3.282379 32.328816 5.623537
2003-12-09 08:29:29 51°17.04 2°52.668 6.826533 3.276797 32.263089 5.522409
2003-12-09 08:29:36 51°17.06 2°52.641 6.829736 3.282168 32.312902 5.556118
2003-12-09 08:29:40 51°17.072 2°52.625 6.832938 3.281957 32.307403 5.522409
2003-12-09 08:29:45 51°17.086 2°52.606 6.832938 3.281957 32.307403 5.522409
2003-12-09 08:29:49 51°17.097 2°52.59 6.83816 3.280588 32.287666 5.623537
2003-12-09 08:29:56 51°17.116 2°52.562 6.844169 3.286275 32.342506 5.657247
2003-12-09 08:30:00 51°17.127 2°52.546 6.852148 3.287328 32.34919 5.690956
2003-12-09 08:30:03 51°17.135 2°52.534 6.859633 3.287539 32.348284 5.724665
2003-12-09 08:30:09 51°17.152 2°52.51 6.862243 3.284695 32.313271 5.690956
2003-12-09 08:30:16 51°17.171 2°52.481 6.862243 3.284695 32.313271 5.690956
2003-12-09 08:30:20 51°17.182 2°52.466 6.867216 3.289329 32.362206 5.758375
2003-12-09 08:30:26 51°17.199 2°52.441 6.876915 3.287223 32.332833 5.825794
2003-12-09 08:30:29 51°17.208 2°52.43 6.871746 3.289856 32.354336 5.893212
2003-12-09 08:30:35 51°17.225 2°52.406 6.870367 3.290593 32.357571 5.825794
2003-12-09 08:30:40 51°17.239 2°52.386 6.869136 3.291646 32.364249 5.724665
2003-12-09 08:30:46 51°17.256 2°52.362 6.869136 3.291646 32.364249 5.724665
2003-12-09 08:30:49 51°17.264 2°52.349 6.869678 3.290804 32.351065 5.657247
2003-12-09 08:30:56 51°17.284 2°52.321 6.873419 3.290804 32.347866 5.556118
2003-12-09 08:31:00 51°17.295 2°52.304 6.873813 3.292699 32.366924 5.421281
2003-12-09 08:31:04 51°17.306 2°52.288 6.879573 3.29291 32.366819 5.219024
2003-12-09 08:31:11 51°17.326 2°52.259 6.885037 3.291857 32.355343 5.084187
2003-12-09 08:31:16 51°17.34 2°52.238 6.885037 3.291857 32.355343 5.084187
2003-12-09 08:31:20 51°17.351 2°52.222 6.885579 3.293647 32.375652 4.983059
2003-12-09 08:31:26 51°17.368 2°52.197 6.897145 3.274479 32.164488 4.983059
2003-12-09 08:31:29 51°17.376 2°52.185 6.889467 3.291751 32.350996 5.050477
2003-12-09 08:31:36 51°17.396 2°52.157 6.891337 3.29607 32.394042 5.286443
2003-12-09 08:31:40 51°17.407 2°52.14 6.895275 3.293331 32.361009 5.353862
2003-12-09 08:31:45 51°17.421 2°52.119 6.895275 3.293331 32.361009 5.353862
2003-12-09 08:31:50 51°17.435 2°52.099 6.899852 3.297333 32.401406 5.421281
2003-12-09 08:31:56 51°17.452 2°52.074 6.908266 3.296175 32.385585 5.353862
2003-12-09 08:32:01 51°17.466 2°52.053 6.905658 3.298281 32.408529 5.286443
2003-12-09 08:32:06 51°17.48 2°52.033 6.907922 3.298281 32.405327 5.117896
2003-12-09 08:32:10 51°17.491 2°52.016 6.910972 3.295964 32.37929 4.91564
2003-12-09 08:32:15 51°17.505 2°51.996 6.910972 3.295964 32.37929 4.91564
2003-12-09 08:32:20 51°17.519 2°51.975 6.910628 3.29965 32.416236 4.88193
2003-12-09 08:32:25 51°17.533 2°51.955 6.913334 3.300598 32.421755 4.848221
2003-12-09 08:32:30 51°17.547 2°51.935 6.913875 3.300598 32.420154 4.713383
2003-12-09 08:32:36 51°17.563 2°51.91 6.918303 3.301651 32.42842 4.713383
2003-12-09 08:32:40 51°17.574 2°51.893 6.920911 3.301862 32.428312 4.679674
2003-12-09 08:32:44 51°17.586 2°51.876 6.920911 3.301862 32.428312 4.679674
2003-12-09 08:32:51 51°17.605 2°51.847 6.928339 3.301967 32.425455 4.645965
2003-12-09 08:32:56 51°17.619 2°51.827 6.934782 3.30302 32.436122 4.679674
2003-12-09 08:33:00 51°17.63 2°51.81 6.929175 3.30302 32.43452 4.645965
2003-12-09 08:33:04 51°17.641 2°51.794 6.926322 3.298807 32.38706 4.645965
2003-12-09 08:33:10 51°17.658 2°51.77 6.928142 3.3046 32.447715 4.645965
2003-12-09 08:33:16 51°17.674 2°51.745 6.928142 3.3046 32.447715 4.645965
2003-12-09 08:33:20 51°17.685 2°51.729 6.936749 3.303652 32.432593 4.713383
2003-12-09 08:33:24 51°17.697 2°51.713 6.929618 3.304284 32.436269 4.645965
2003-12-09 08:33:31 51°17.716 2°51.684 6.92278 3.304284 32.435469 4.645965
2003-12-09 08:33:36 51°17.73 2°51.663 6.932077 3.303547 32.427445 4.578546
2003-12-09 08:33:40 51°17.741 2°51.647 6.936749 3.295964 32.343337 4.443708
2003-12-09 08:33:45 51°17.754 2°51.627 6.936749 3.295964 32.343337 4.443708
2003-12-09 08:33:48 51°17.763 2°51.614 6.921255 3.305759 32.449916 4.477418
2003-12-09 08:33:56 51°17.785 2°51.582 6.918992 3.29807 32.368649 4.409999
2003-12-09 08:34:00 51°17.796 2°51.566 6.927552 3.306601 32.461489 4.511127
2003-12-09 08:34:06 51°17.813 2°51.541 6.924207 3.303757 32.428938 4.443708
2003-12-09 08:34:09 51°17.821 2°51.529 6.922977 3.306812 32.463782 4.409999
2003-12-09 08:34:16 51°17.841 2°51.5 6.922977 3.306812 32.463782 4.409999
2003-12-09 08:34:20 51°17.852 2°51.483 6.926322 3.30776 32.477305 4.34258
2003-12-09 08:34:25 51°17.866 2°51.463 6.9246 3.305337 32.451736 4.34258
2003-12-09 08:34:30 51°17.88 2°51.442 6.929863 3.30776 32.475702 4.376289
2003-12-09 08:34:36 51°17.897 2°51.417 6.92642 3.307233 32.471573 4.409999
2003-12-09 08:34:40 51°17.908 2°51.401 6.93488 3.308708 32.488427 4.477418
2003-12-09 08:34:45 51°17.922 2°51.38 6.93488 3.308708 32.488427 4.477418
2003-12-09 08:34:50 51°17.936 2°51.359 6.932667 3.308708 32.486021 4.544836
2003-12-09 08:34:56 51°17.953 2°51.333 6.932667 3.308918 32.488315 4.443708
2003-12-09 08:35:00 51°17.965 2°51.317 6.927552 3.30955 32.49359 4.443708
2003-12-09 08:35:04 51°17.976 2°51.299 6.939995 3.307549 32.471807 4.477418
2003-12-09 08:35:09 51°17.99 2°51.278 6.938864 3.309445 32.490039 4.443708
2003-12-09 08:35:16 51°18.01 2°51.248 6.938864 3.309445 32.490039 4.443708
2003-12-09 08:35:20 51°18.021 2°51.231 6.938372 3.30934 32.487289 4.443708
2003-12-09 08:35:26 51°18.038 2°51.206 6.942504 3.310393 32.498753 4.443708
2003-12-09 08:35:29 51°18.047 2°51.193 6.947766 3.310393 32.49715 4.443708
2003-12-09 08:35:36 51°18.066 2°51.163 6.953027 3.310603 32.495434 4.477418
2003-12-09 08:35:40 51°18.078 2°51.146 6.95283 3.31113 32.500364 4.443708
2003-12-09 08:35:46 51°18.095 2°51.121 6.95283 3.31113 32.500364 4.443708
2003-12-09 08:35:51 51°18.109 2°51.1 6.953912 3.309445 32.481223 4.443708
2003-12-09 08:35:56 51°18.123 2°51.079 6.952339 3.311762 32.503233 4.477418
2003-12-09 08:36:01 51°18.138 2°51.057 6.957895 3.311762 32.500026 4.511127
2003-12-09 08:36:06 51°18.152 2°51.037 6.973921 3.312394 32.504498 4.511127
2003-12-09 08:36:10 51°18.163 2°51.021 6.97864 3.308602 32.460844 4.477418
2003-12-09 08:36:16 51°18.179 2°50.999 6.97864 3.308602 32.460844 4.477418
2003-12-09 08:36:20 51°18.189 2°50.985 6.983702 3.310498 32.479866 4.477418
2003-12-09 08:36:25 51°18.203 2°50.969 6.983014 3.313763 32.512982 4.477418
2003-12-09 08:36:29 51°18.213 2°50.957 6.979475 3.313868 32.509319 4.511127
2003-12-09 08:36:36 51°18.232 2°50.938 6.984636 3.314605 32.510126 4.477418
2003-12-09 08:36:40 51°18.242 2°50.929 6.984832 3.314921 32.506353 4.511127
2003-12-09 08:36:44 51°18.253 2°50.92 6.984832 3.314921 32.506353 4.511127
2003-12-09 08:36:51 51°18.272 2°50.907 6.98729 3.315448 32.508875 4.511127
2003-12-09 08:36:56 51°18.285 2°50.899 6.999476 3.315974 32.511397 4.477418
2003-12-09 08:37:01 51°18.299 2°50.894 6.997953 3.313973 32.488041 4.477418
2003-12-09 08:37:05 51°18.31 2°50.891 7.001491 3.316185 32.512085 4.376289
2003-12-09 08:37:11 51°18.326 2°50.889 7.003947 3.317765 32.527659 4.376289
2003-12-09 08:37:17 51°18.342 2°50.889 7.003947 3.317765 32.527659 4.376289
2003-12-09 08:37:21 51°18.351 2°50.89 7.006011 3.317449 32.519418 4.308871
2003-12-09 08:37:26 51°18.363 2°50.893 6.998346 3.317344 32.516671 4.376289
2003-12-09 08:37:29 51°18.37 2°50.895 7.004144 3.318502 32.524458 4.443708
2003-12-09 08:37:37 51°18.387 2°50.903 7.00886 3.318713 32.522744 4.443708
2003-12-09 08:37:41 51°18.394 2°50.909 7.000459 3.315869 32.491043 4.443708
2003-12-09 08:37:46 51°18.403 2°50.917 7.000459 3.315869 32.491043 4.443708
2003-12-09 08:37:50 51°18.409 2°50.924 7.002228 3.319555 32.529498 4.477418
2003-12-09 08:37:57 51°18.42 2°50.934 6.996626 3.319555 32.528697 4.578546
2003-12-09 08:38:01 51°18.425 2°50.941 6.988076 3.320082 32.535221 4.477418
2003-12-09 08:38:06 51°18.432 2°50.948 6.981539 3.319871 32.532932 4.443708
2003-12-09 08:38:09 51°18.436 2°50.952 6.98729 3.31945 32.526752 4.34258
2003-12-09 08:38:17 51°18.445 2°50.961 6.98729 3.31945 32.526752 4.34258
2003-12-09 08:38:21 51°18.45 2°50.965 6.978099 3.318818 32.523088 4.308871
2003-12-09 08:38:27 51°18.456 2°50.971 6.97628 3.318397 32.523314 4.140324
2003-12-09 08:38:29 51°18.458 2°50.973 6.975641 3.318291 32.528577 4.106614
2003-12-09 08:38:36 51°18.465 2°50.979 6.969939 3.318081 32.529491 4.174033
2003-12-09 08:38:41 51°18.47 2°50.982 6.966498 3.316922 32.518498 4.039195
2003-12-09 08:38:45 51°18.474 2°50.985 6.966498 3.316922 32.518498 4.039195
2003-12-09 08:38:49 51°18.477 2°50.988 6.964925 3.316817 32.52216 3.971777
2003-12-09 08:38:57 51°18.484 2°50.994 6.966449 3.316501 32.521128 4.039195
2003-12-09 08:39:01 51°18.487 2°50.996 6.961828 3.315659 32.515972 4.072905
2003-12-09 08:39:06 51°18.491 2°50.999 6.962713 3.315448 32.513681 3.971777
2003-12-09 08:39:11 51°18.495 2°51.002 6.965613 3.314921 32.51196 4.072905
2003-12-09 08:39:16 51°18.498 2°51.005 6.965613 3.314921 32.51196 4.072905
2003-12-09 08:39:21 51°18.5 2°51.007 6.964286 3.315132 32.515854 3.971777
2003-12-09 08:39:25 51°18.502 2°51.008 6.966597 3.310498 32.466257 3.971777
2003-12-09 08:39:30 51°18.504 2°51.009 6.956518 3.313657 32.50222 4.039195
2003-12-09 08:39:37 51°18.506 2°51.009 6.954453 3.31134 32.477021 4.140324
2003-12-09 08:39:41 51°18.507 2°51.009 6.963794 3.313447 32.499128 4.072905
2003-12-09 08:39:46 51°18.508 2°51.008 6.963794 3.313447 32.499128 4.072905
2003-12-09 08:39:50 51°18.508 2°51.007 6.965466 3.309339 32.45366 4.039195
2003-12-09 08:39:57 51°18.51 2°51.005 6.972151 3.309339 32.455259 4.005486
2003-12-09 08:40:01 51°18.511 2°51.004 6.974757 3.313342 32.50359 4.039195
2003-12-09 08:40:06 51°18.512 2°51.002 6.976624 3.309445 32.462805 3.971777
2003-12-09 08:40:11 51°18.513 2°51.001 6.983407 3.31271 32.495916 3.904358
2003-12-09 08:40:16 51°18.514 2°50.999 6.983407 3.31271 32.495916 3.904358
2003-12-09 08:40:21 51°18.515 2°50.997 6.977313 3.312183 32.486984 3.836939
2003-12-09 08:40:26 51°18.516 2°50.995 6.973675 3.311762 32.476799 3.870648
2003-12-09 08:40:31 51°18.516 2°50.993 6.968071 3.311656 32.471653 3.836939
2003-12-09 08:40:36 51°18.517 2°50.991 6.96286 3.312815 32.480248 3.904358
2003-12-09 08:40:41 51°18.518 2°50.989 6.960697 3.313341 32.484373 3.904358
2003-12-09 08:40:44 51°18.519 2°50.988 6.960697 3.313341 32.484373 3.904358
2003-12-09 08:40:50 51°18.519 2°50.985 6.957452 3.313131 32.483683 3.904358
2003-12-09 08:40:57 51°18.521 2°50.983 6.956075 3.313763 32.492154 3.971777
2003-12-09 08:41:01 51°18.521 2°50.982 6.959419 3.313973 32.497647 3.904358
2003-12-09 08:41:06 51°18.522 2°50.98 6.958386 3.313447 32.495925 3.870648
2003-12-09 08:41:10 51°18.523 2°50.979 6.960795 3.31292 32.495804 3.870648
2003-12-09 08:41:17 51°18.524 2°50.976 6.960795 3.31292 32.495804 3.870648
2003-12-09 08:41:21 51°18.524 2°50.975 6.960697 3.313026 32.49775 3.870648
2003-12-09 08:41:26 51°18.525 2°50.973 6.959714 3.312815 32.497061 3.904358
2003-12-09 08:41:30 51°18.525 2°50.972 6.962959 3.31271 32.495115 3.971777
2003-12-09 08:41:37 51°18.526 2°50.97 6.955485 3.31271 32.495115 3.971777
2003-12-09 08:41:41 51°18.526 2°50.969 6.949536 3.309023 32.453423 3.938067
2003-12-09 08:41:46 51°18.527 2°50.968 6.949536 3.309023 32.453423 3.938067
2003-12-09 08:41:51 51°18.527 2°50.967 6.948897 3.311867 32.48595 3.971777
2003-12-09 08:41:56 51°18.528 2°50.966 6.950568 3.312604 32.493168 3.938067
2003-12-09 08:42:01 51°18.528 2°50.964 6.947372 3.312499 32.492823 3.870648
2003-12-09 08:42:06 51°18.528 2°50.963 6.952388 3.312604 32.497173 3.80323
2003-12-09 08:42:11 51°18.528 2°50.962 6.955584 3.312078 32.493848 3.80323
2003-12-09 08:42:17 51°18.529 2°50.961 6.955584 3.312078 32.493848 3.80323
2003-12-09 08:42:21 51°18.529 2°50.96 6.957747 3.308707 32.459588 3.80323
2003-12-09 08:42:26 51°18.529 2°50.959 6.960402 3.308075 32.452715 3.80323
2003-12-09 08:42:31 51°18.529 2°50.958 6.959173 3.312183 32.497397 3.836939
2003-12-09 08:42:36 51°18.53 2°50.957 6.956862 3.312183 32.496596 3.836939
2003-12-09 08:42:41 51°18.53 2°50.957 6.958386 3.312288 32.496139 3.904358
2003-12-09 08:42:45 51°18.53 2°50.956 6.958386 3.312288 32.496139 3.904358
2003-12-09 08:42:49 51°18.53 2°50.955 6.958239 3.312499 32.496027 3.904358
2003-12-09 08:42:57 51°18.53 2°50.954 6.957895 3.313447 32.505537 4.072905
2003-12-09 08:43:01 51°18.529 2°50.953 6.956469 3.313342 32.50359 3.870648
2003-12-09 08:43:06 51°18.529 2°50.952 6.954404 3.309023 32.457423 3.836939
2003-12-09 08:43:11 51°18.529 2°50.951 6.961435 3.310814 32.477697 3.904358
2003-12-09 08:43:17 51°18.529 2°50.95 6.961435 3.310814 32.477697 3.904358
2003-12-09 08:43:21 51°18.529 2°50.95 6.957895 3.31292 32.499809 3.80323
2003-12-09 08:43:26 51°18.529 2°50.949 6.95819 3.313236 32.503246 3.76952
2003-12-09 08:43:29 51°18.528 2°50.948 6.956567 3.313131 32.502902 3.80323
2003-12-09 08:43:37 51°18.528 2°50.947 6.9546 3.31292 32.499809 3.904358
2003-12-09 08:43:41 51°18.528 2°50.947 6.955731 3.313236 32.500842 3.870648
2003-12-09 08:43:46 51°18.528 2°50.946 6.955731 3.313236 32.500842 3.870648
2003-12-09 08:43:51 51°18.527 2°50.945 6.956075 3.313236 32.502445 3.938067
2003-12-09 08:43:56 51°18.527 2°50.945 6.955731 3.313447 32.505537 3.938067
2003-12-09 08:44:01 51°18.526 2°50.944 6.9576 3.313447 32.50714 3.904358
2003-12-09 08:44:06 51°18.526 2°50.943 6.956764 3.313552 32.507484 3.904358
2003-12-09 08:44:10 51°18.526 2°50.943 6.957108 3.313131 32.503703 3.836939
2003-12-09 08:44:17 51°18.525 2°50.942 6.957108 3.313131 32.503703 3.836939
2003-12-09 08:44:21 51°18.525 2°50.941 6.956715 3.313236 32.504849 3.870648
2003-12-09 08:44:25 51°18.524 2°50.941 6.955633 3.311762 32.488008 3.904358
2003-12-09 08:44:29 51°18.524 2°50.94 6.952142 3.310393 32.473916 3.870648
2003-12-09 08:44:37 51°18.523 2°50.94 6.950962 3.313552 32.506683 3.870648
2003-12-09 08:44:41 51°18.522 2°50.939 6.956764 3.313342 32.505994 3.870648
2003-12-09 08:44:46 51°18.522 2°50.938 6.956764 3.313342 32.505994 3.870648
2003-12-09 08:44:49 51°18.521 2°50.938 6.954404 3.312183 32.49259 3.904358
2003-12-09 08:44:57 51°18.52 2°50.937 6.954256 3.313447 32.507942 3.904358
2003-12-09 08:45:01 51°18.52 2°50.937 6.955485 3.313447 32.50714 3.836939
2003-12-09 08:45:05 51°18.519 2°50.936 6.95996 3.313552 32.509889 3.904358
2003-12-09 08:45:11 51°18.519 2°50.936 6.957255 3.313658 32.511836 3.836939
2003-12-09 08:45:17 51°18.518 2°50.935 6.957255 3.313658 32.511836 3.836939
2003-12-09 08:45:21 51°18.517 2°50.934 6.953814 3.309866 32.469789 3.836939
2003-12-09 08:45:26 51°18.517 2°50.934 6.95347 3.313552 32.509087 3.80323
2003-12-09 08:45:30 51°18.516 2°50.933 6.956715 3.313236 32.504849 3.870648
2003-12-09 08:45:37 51°18.515 2°50.933 6.956813 3.313552 32.507484 3.904358
2003-12-09 08:45:41 51°18.515 2°50.932 6.954158 3.313974 32.512067 3.870648
2003-12-09 08:45:46 51°18.514 2°50.932 6.954158 3.313974 32.512067 3.870648
2003-12-09 08:45:57 51°18.512 2°50.93 6.954256 3.310708 32.476552 3.938067
2003-12-09 08:46:01 51°18.512 2°50.93 6.955387 3.313447 32.506339 3.938067
2003-12-09 08:46:06 51°18.511 2°50.929 6.951994 3.313131 32.502902 3.938067
2003-12-09 08:46:10 51°18.51 2°50.929 6.951503 3.313868 32.513326 3.904358
2003-12-09 08:46:17 51°18.509 2°50.928 6.951503 3.313868 32.513326 3.904358
2003-12-09 08:46:22 51°18.508 2°50.928 6.947618 3.313868 32.513326 3.870648
2003-12-09 08:46:26 51°18.507 2°50.927 6.95165 3.313763 32.511379 3.836939
2003-12-09 08:46:31 51°18.507 2°50.926 6.949978 3.313868 32.513326 3.76952
2003-12-09 08:46:36 51°18.506 2°50.926 6.952191 3.313763 32.512982 3.80323
2003-12-09 08:46:41 51°18.505 2°50.925 6.945651 3.313552 32.512294 3.80323
2003-12-09 08:46:45 51°18.504 2°50.925 6.945651 3.313552 32.512294 3.80323
2003-12-09 08:46:50 51°18.503 2°50.924 6.94693 3.311025 32.485595 3.836939
2003-12-09 08:46:57 51°18.502 2°50.924 6.945258 3.313658 32.514241 3.836939
2003-12-09 08:47:01 51°18.501 2°50.923 6.944471 3.312815 32.505074 3.80323
2003-12-09 08:47:05 51°18.501 2°50.923 6.947569 3.313342 32.510803 3.80323
2003-12-09 08:47:09 51°18.5 2°50.922 6.948208 3.313236 32.511261 3.76952
2003-12-09 08:47:17 51°18.498 2°50.921 6.948208 3.313236 32.511261 3.76952
2003-12-09 08:47:21 51°18.498 2°50.921 6.951994 3.313342 32.51401 3.836939
2003-12-09 08:47:25 51°18.497 2°50.921 6.953715 3.313342 32.51401 3.836939
2003-12-09 08:47:31 51°18.496 2°50.92 6.951798 3.313447 32.514354 3.76952
2003-12-09 08:47:37 51°18.495 2°50.92 6.95106 3.313658 32.517448 3.76952
2003-12-09 08:47:41 51°18.495 2°50.919 6.950667 3.313447 32.513553 3.702101
2003-12-09 08:47:46 51°18.494 2°50.919 6.950667 3.313447 32.513553 3.702101
2003-12-09 08:47:51 51°18.493 2°50.919 6.95106 3.313552 32.512294 3.76952
2003-12-09 08:47:56 51°18.492 2°50.918 6.96055 3.313131 32.506908 3.836939
2003-12-09 08:48:01 51°18.492 2°50.918 6.960943 3.313868 32.516533 3.76952
2003-12-09 08:48:06 51°18.491 2°50.918 6.95696 3.313763 32.514585 3.702101
2003-12-09 08:48:10 51°18.49 2°50.917 6.954305 3.313658 32.513439 3.76952
2003-12-09 08:48:17 51°18.489 2°50.917 6.954305 3.313658 32.513439 3.76952
2003-12-09 08:48:28 51°18.488 2°50.917 6.958091 3.314711 32.518485 3.80323
2003-12-09 08:48:32 51°18.488 2°50.918 6.954404 3.314711 32.517683 3.938067
2003-12-09 08:48:37 51°18.488 2°50.919 6.953322 3.314605 32.518942 3.870648
2003-12-09 08:48:42 51°18.489 2°50.922 6.950814 3.3145 32.516995 3.80323
2003-12-09 08:48:47 51°18.49 2°50.925 6.952978 3.314289 32.515505 3.80323
2003-12-09 08:48:53 51°18.492 2°50.928 6.952978 3.314289 32.515505 3.80323
2003-12-09 08:48:57 51°18.493 2°50.931 6.95524 3.314184 32.514359 3.702101
2003-12-09 08:49:02 51°18.496 2°50.934 6.953814 3.314184 32.515962 3.702101
2003-12-09 08:49:06 51°18.5 2°50.937 6.953666 3.314395 32.519055 3.76952
2003-12-09 08:49:12 51°18.506 2°50.941 6.95637 3.313974 32.515274 3.80323
2003-12-09 08:49:17 51°18.514 2°50.942 6.95106 3.313974 32.512869 3.971777
2003-12-09 08:49:22 51°18.522 2°50.941 6.95106 3.313974 32.512869 3.971777
2003-12-09 08:49:26 51°18.529 2°50.939 6.954502 3.311762 32.491212 3.870648
2003-12-09 08:49:32 51°18.54 2°50.932 6.951404 3.313974 32.513671 3.870648
2003-12-09 08:49:37 51°18.549 2°50.923 6.951355 3.31292 32.503014 3.870648
2003-12-09 08:49:42 51°18.558 2°50.91 6.952044 3.313868 32.513326 3.870648
2003-12-09 08:49:45 51°18.563 2°50.902 6.953814 3.310709 32.480556 3.904358
2003-12-09 08:49:53 51°18.573 2°50.874 6.953814 3.310709 32.480556 3.904358
2003-12-09 08:49:57 51°18.576 2°50.859 6.948601 3.313658 32.513439 4.005486
2003-12-09 08:50:02 51°18.579 2°50.838 6.95637 3.311446 32.490979 4.005486
2003-12-09 08:50:06 51°18.58 2°50.82 6.958485 3.313447 32.513553 4.039195
2003-12-09 08:50:13 51°18.579 2°50.788 6.960009 3.312499 32.502438 4.039195
2003-12-09 08:50:17 51°18.576 2°50.769 6.962172 3.313447 32.513553 3.938067
2003-12-09 08:50:22 51°18.573 2°50.745 6.962172 3.313447 32.513553 3.938067
2003-12-09 08:50:26 51°18.569 2°50.726 6.95937 3.31271 32.505531 3.971777
2003-12-09 08:50:33 51°18.56 2°50.692 6.954453 3.313236 32.508856 3.938067
2003-12-09 08:50:37 51°18.553 2°50.673 6.95578 3.309655 32.468298 3.904358
2003-12-09 08:50:41 51°18.545 2°50.654 6.955436 3.313131 32.502902 4.140324
2003-12-09 08:50:47 51°18.532 2°50.627 6.95878 3.313447 32.504736 3.836939
2003-12-09 08:50:52 51°18.519 2°50.606 6.95878 3.313447 32.504736 3.836939
2003-12-09 08:50:57 51°18.505 2°50.587 6.959419 3.310603 32.475406 3.80323
2003-12-09 08:51:02 51°18.489 2°50.571 6.965663 3.310919 32.482847 3.80323
2003-12-09 08:51:06 51°18.476 2°50.559 6.966892 3.311867 32.491557 3.735811
2003-12-09 08:51:13 51°18.452 2°50.541 6.967137 3.313342 32.507597 3.80323
2003-12-09 08:51:18 51°18.434 2°50.53 6.967334 3.311446 32.486173 3.80323
2003-12-09 08:51:22 51°18.419 2°50.521 6.967334 3.311446 32.486173 3.80323
2003-12-09 08:51:28 51°18.397 2°50.509 6.966105 3.312394 32.49328 3.80323
2003-12-09 08:51:33 51°18.378 2°50.499 6.961926 3.314921 32.51757 3.80323
2003-12-09 08:51:37 51°18.363 2°50.492 6.963204 3.315237 32.520205 3.80323
2003-12-09 08:51:41 51°18.347 2°50.485 6.959271 3.315343 32.520549 3.76952
2003-12-09 08:51:47 51°18.324 2°50.473 6.955633 3.315343 32.520549 3.80323
2003-12-09 08:51:52 51°18.304 2°50.463 6.955633 3.315343 32.520549 3.80323
2003-12-09 08:51:57 51°18.284 2°50.454 6.957747 3.315448 32.521695 3.735811
2003-12-09 08:52:02 51°18.264 2°50.444 6.95878 3.315975 32.528224 3.735811
2003-12-09 08:52:06 51°18.249 2°50.437 6.95937 3.31292 32.495804 3.702101
2003-12-09 08:52:13 51°18.221 2°50.423 6.960353 3.315553 32.525245 3.702101
2003-12-09 08:52:17 51°18.205 2°50.415 6.964139 3.315343 32.524557 3.668392
2003-12-09 08:52:21 51°18.189 2°50.407 6.964139 3.315343 32.524557 3.668392
2003-12-09 08:52:27 51°18.165 2°50.395 6.962025 3.315553 32.526849 3.76952
2003-12-09 08:52:32 51°18.145 2°50.385 6.964188 3.315448 32.524901 3.702101
2003-12-09 08:52:37 51°18.126 2°50.375 6.967875 3.315659 32.526391 3.76952
2003-12-09 08:52:42 51°18.106 2°50.366 6.971119 3.315764 32.525933 3.668392
2003-12-09 08:52:46 51°18.09 2°50.357 6.976035 3.315764 32.525131 3.735811
2003-12-09 08:52:53 51°18.062 2°50.344 6.976035 3.315764 32.525131 3.735811
2003-12-09 08:52:57 51°18.046 2°50.336 6.977214 3.313236 32.497638 3.76952
2003-12-09 08:53:03 51°18.022 2°50.324 6.982277 3.316396 32.528798 3.76952
2003-12-09 08:53:05 51°18.014 2°50.32 6.987584 3.316712 32.531433 3.836939
2003-12-09 08:53:12 51°17.986 2°50.306 6.992744 3.317449 32.535443 3.836939
2003-12-09 08:53:17 51°17.966 2°50.296 6.99584 3.318292 32.542201 3.80323
2003-12-09 08:53:21 51°17.95 2°50.288 6.99584 3.318292 32.542201 3.80323
2003-12-09 08:53:27 51°17.926 2°50.276 7.001589 3.318608 32.543232 3.870648
2003-12-09 08:53:30 51°17.914 2°50.27 7.003702 3.319345 32.548042 4.039195
2003-12-09 08:53:37 51°17.886 2°50.257 7.007092 3.316606 32.513462 4.039195
2003-12-09 08:53:42 51°17.866 2°50.247 7.010727 3.319766 32.543003 4.039195
2003-12-09 08:53:46 51°17.85 2°50.239 7.01559 3.321451 32.558917 4.207742
2003-12-09 08:53:52 51°17.826 2°50.226 7.01559 3.321451 32.558917 4.207742
2003-12-09 08:53:57 51°17.806 2°50.216 7.018488 3.322083 32.560174 4.140324
2003-12-09 08:54:01 51°17.79 2°50.208 7.021681 3.322715 32.56544 4.106614
2003-12-09 08:54:06 51°17.77 2°50.199 7.019078 3.323136 32.568415 4.207742
2003-12-09 08:54:13 51°17.742 2°50.185 7.020797 3.323874 32.570816 4.275161
2003-12-09 08:54:17 51°17.726 2°50.176 7.023302 3.324505 32.574476 4.308871
2003-12-09 08:54:22 51°17.706 2°50.166 7.023302 3.324505 32.574476 4.308871
2003-12-09 08:54:26 51°17.691 2°50.159 7.023548 3.325032 32.578595 4.308871
2003-12-09 08:54:33 51°17.663 2°50.146 7.0234 3.325453 32.580767 4.34258
2003-12-09 08:54:37 51°17.647 2°50.138 7.022467 3.325769 32.580994 4.308871
2003-12-09 08:54:41 51°17.631 2°50.13 7.021485 3.326296 32.586715 4.34258
2003-12-09 08:54:47 51°17.607 2°50.118 7.023253 3.324189 32.563029 4.308871
2003-12-09 08:54:52 51°17.587 2°50.108 7.023253 3.324189 32.563029 4.308871
2003-12-09 08:54:57 51°17.567 2°50.098 7.022664 3.326507 32.586599 4.376289
2003-12-09 08:55:02 51°17.547 2°50.088 7.021681 3.326717 32.588887 4.34258
2003-12-09 08:55:06 51°17.531 2°50.08 7.022614 3.326507 32.585797 4.308871
2003-12-09 08:55:13 51°17.504 2°50.067 7.023646 3.326823 32.58923 4.308871
2003-12-09 08:55:17 51°17.487 2°50.059 7.028557 3.327244 32.593807 4.275161
2003-12-09 08:55:21 51°17.472 2°50.051 7.028557 3.327244 32.593807 4.275161
2003-12-09 08:55:28 51°17.444 2°50.038 7.027084 3.327244 32.594609 4.308871
2003-12-09 08:55:32 51°17.428 2°50.031 7.031307 3.324821 32.569093 4.308871
2003-12-09 08:55:38 51°17.404 2°50.019 7.034401 3.327244 32.596212 4.409999
2003-12-09 08:55:41 51°17.393 2°50.012 7.03116 3.3244 32.562113 4.409999
2003-12-09 08:55:46 51°17.373 2°50 7.031504 3.327454 32.59369 4.376289
2003-12-09 08:55:50 51°17.357 2°49.99 7.031504 3.327454 32.59369 4.376289
2003-12-09 08:55:57 51°17.331 2°49.97 7.032437 3.328192 32.600095 4.511127
2003-12-09 08:56:01 51°17.316 2°49.959 7.033125 3.328508 32.601924 4.477418
2003-12-09 08:56:06 51°17.297 2°49.945 7.034991 3.328402 32.599176 4.511127
2003-12-09 08:56:12 51°17.274 2°49.928 7.032388 3.329034 32.605238 4.511127
2003-12-09 08:56:17 51°17.256 2°49.914 7.033468 3.328929 32.605698 4.511127
2003-12-09 08:56:22 51°17.237 2°49.9 7.033468 3.328929 32.605698 4.511127
2003-12-09 08:56:26 51°17.222 2°49.888 7.03666 3.325874 32.570919 4.544836
2003-12-09 08:56:33 51°17.196 2°49.869 7.035531 3.329034 32.603635 4.578546
2003-12-09 08:56:37 51°17.181 2°49.858 7.037151 3.32935 32.607869 4.477418
2003-12-09 08:56:41 51°17.166 2°49.847 7.036611 3.32935 32.607067 4.544836
2003-12-09 08:56:47 51°17.143 2°49.831 7.035089 3.329245 32.605121 4.544836
2003-12-09 08:56:52 51°17.124 2°49.818 7.035089 3.329245 32.605121 4.544836
2003-12-09 08:56:57 51°17.106 2°49.804 7.036071 3.326717 32.576865 4.511127
2003-12-09 08:57:02 51°17.087 2°49.79 7.039165 3.328718 32.597798 4.612255
2003-12-09 08:57:06 51°17.072 2°49.779 7.042258 3.326506 32.573777 4.544836
2003-12-09 08:57:13 51°17.046 2°49.76 7.044026 3.329666 32.608093 4.511127
2003-12-09 08:57:17 51°17.031 2°49.749 7.041423 3.329666 32.608895 4.511127
2003-12-09 08:57:21 51°17.016 2°49.738 7.041423 3.329666 32.608895 4.511127
2003-12-09 08:57:28 51°16.99 2°49.719 7.04162 3.329982 32.610723 4.578546
2003-12-09 08:57:32 51°16.975 2°49.708 7.04216 3.329877 32.607975 4.578546
2003-12-09 08:57:38 51°16.953 2°49.692 7.04324 3.330193 32.609803 4.544836
2003-12-09 08:57:41 51°16.941 2°49.683 7.044959 3.328192 32.588071 4.612255
2003-12-09 08:57:46 51°16.923 2°49.669 7.045253 3.330614 32.615181 4.612255
2003-12-09 08:57:50 51°16.908 2°49.656 7.045253 3.330614 32.615181 4.612255
2003-12-09 08:57:57 51°16.883 2°49.633 7.050801 3.330403 32.612091 4.645965
2003-12-09 08:58:01 51°16.869 2°49.62 7.051685 3.331141 32.619296 4.645965
2003-12-09 08:58:06 51°16.851 2°49.603 7.053747 3.331141 32.617692 4.645965
2003-12-09 08:58:13 51°16.827 2°49.579 7.05414 3.331246 32.618034 4.645965
2003-12-09 08:58:17 51°16.812 2°49.566 7.05252 3.331246 32.614826 4.679674
2003-12-09 08:58:22 51°16.794 2°49.549 7.05252 3.331246 32.614826 4.679674
2003-12-09 08:58:26 51°16.779 2°49.535 7.055367 3.331562 32.617456 4.747093
2003-12-09 08:58:33 51°16.753 2°49.512 7.058067 3.331878 32.619283 4.747093
2003-12-09 08:58:37 51°16.739 2°49.499 7.05954 3.332089 32.619966 4.645965
2003-12-09 08:58:42 51°16.72 2°49.483 7.063123 3.332405 32.621793 4.645965
2003-12-09 08:58:46 51°16.705 2°49.47 7.063663 3.332721 32.624422 4.645965
2003-12-09 08:58:53 51°16.679 2°49.446 7.063663 3.332721 32.624422 4.645965
2003-12-09 08:58:58 51°16.66 2°49.429 7.066362 3.332931 32.625907 4.713383
2003-12-09 08:59:02 51°16.646 2°49.414 7.067982 3.333036 32.626249 4.645965
2003-12-09 08:59:06 51°16.631 2°49.4 7.069455 3.333352 32.626472 4.645965
2003-12-09 08:59:13 51°16.607 2°49.374 7.070633 3.333352 32.62567 4.679674
2003-12-09 08:59:17 51°16.593 2°49.358 7.072301 3.333668 32.627497 4.612255
2003-12-09 08:59:22 51°16.575 2°49.339 7.072301 3.333668 32.627497 4.612255
2003-12-09 08:59:26 51°16.562 2°49.323 7.079417 3.33409 32.630467 4.612255
2003-12-09 08:59:33 51°16.538 2°49.296 7.076424 3.333774 32.62383 4.679674
2003-12-09 08:59:37 51°16.524 2°49.281 7.077749 3.334406 32.629086 4.645965
2003-12-09 08:59:42 51°16.507 2°49.26 7.078583 3.334932 32.634 4.645965
2003-12-09 08:59:46 51°16.494 2°49.244 7.081675 3.334932 32.631595 4.578546
2003-12-09 08:59:51 51°16.478 2°49.224 7.081675 3.334932 32.631595 4.578546
2003-12-09 08:59:57 51°16.458 2°49.199 7.082214 3.335248 32.631818 4.612255
2003-12-09 09:00:01 51°16.445 2°49.183 7.083 3.33588 32.637874 4.612255
2003-12-09 09:00:07 51°16.425 2°49.158 7.086189 3.335775 32.635128 4.511127
2003-12-09 09:00:12 51°16.409 2°49.138 7.085649 3.335985 32.636613 4.511127
2003-12-09 09:00:18 51°16.389 2°49.114 7.08717 3.336512 32.639922 4.511127
2003-12-09 09:00:22 51°16.376 2°49.097 7.08717 3.336512 32.639922 4.511127
2003-12-09 09:00:27 51°16.359 2°49.077 7.087514 3.336512 32.639922 4.511127
2003-12-09 09:00:33 51°16.34 2°49.053 7.088642 3.336617 32.641867 4.511127
2003-12-09 09:00:37 51°16.327 2°49.037 7.088888 3.333773 32.607008 4.511127
2003-12-09 09:00:42 51°16.31 2°49.017 7.086091 3.335985 32.630202 4.544836
2003-12-09 09:00:47 51°16.294 2°48.996 7.085796 3.334932 32.616373 4.409999
2003-12-09 09:00:53 51°16.274 2°48.972 7.085796 3.334932 32.616373 4.409999
2003-12-09 09:00:57 51°16.261 2°48.956 7.088544 3.337776 32.648826 4.443708
2003-12-09 09:01:02 51°16.245 2°48.936 7.090948 3.337881 32.649167 4.34258
2003-12-09 09:01:06 51°16.231 2°48.92 7.088397 3.337881 32.648366 4.241452
2003-12-09 09:01:13 51°16.208 2°48.892 7.089869 3.337776 32.648024 4.140324
2003-12-09 09:01:17 51°16.195 2°48.876 7.090507 3.337671 32.646882 4.072905
2003-12-09 09:01:22 51°16.179 2°48.856 7.090507 3.337671 32.646882 4.072905
2003-12-09 09:01:26 51°16.166 2°48.84 7.093843 3.337565 32.644136 4.140324
2003-12-09 09:01:33 51°16.143 2°48.812 7.095511 3.337987 32.649508 4.039195
2003-12-09 09:01:37 51°16.13 2°48.795 7.093941 3.337881 32.647564 4.005486
2003-12-09 09:01:41 51°16.116 2°48.779 7.095168 3.337881 32.647564 3.904358
2003-12-09 09:01:46 51°16.1 2°48.759 7.096296 3.338302 32.64973 4.039195
2003-12-09 09:01:53 51°16.077 2°48.731 7.096296 3.338302 32.64973 4.039195
2003-12-09 09:01:57 51°16.064 2°48.715 7.096198 3.337671 32.642874 3.870648
2003-12-09 09:02:02 51°16.048 2°48.695 7.091832 3.338618 32.652356 3.904358
2003-12-09 09:02:06 51°16.034 2°48.679 7.092077 3.338197 32.646984 3.80323
2003-12-09 09:02:12 51°16.015 2°48.654 7.094677 3.338829 32.652236 3.80323
2003-12-09 09:02:17 51°15.998 2°48.635 7.091341 3.338408 32.646865 3.702101
2003-12-09 09:02:21 51°15.985 2°48.618 7.091341 3.338408 32.646865 3.702101
2003-12-09 09:02:26 51°15.969 2°48.599 7.093205 3.338513 32.648809 3.600973
2003-12-09 09:02:30 51°15.955 2°48.583 7.090311 3.338724 32.651895 3.567264
2003-12-09 09:02:37 51°15.932 2°48.555 7.090801 3.338724 32.6543 3.533554
2003-12-09 09:02:41 51°15.919 2°48.539 7.089133 3.338513 32.652015 3.432426
2003-12-09 09:02:45 51°15.906 2°48.523 7.094824 3.338408 32.650872 3.533554
2003-12-09 09:02:53 51°15.88 2°48.491 7.094824 3.338408 32.650872 3.533554
2003-12-09 09:02:57 51°15.867 2°48.475 7.097032 3.338408 32.651674 3.466136
2003-12-09 09:03:02 51°15.85 2°48.456 7.09242 3.337987 32.647104 3.466136
2003-12-09 09:03:06 51°15.837 2°48.44 7.090114 3.338513 32.652015 3.398717
2003-12-09 09:03:12 51°15.817 2°48.416 7.089378 3.337987 32.647905 3.398717
2003-12-09 09:03:17 51°15.801 2°48.396 7.09036 3.337881 32.643557 3.398717
2003-12-09 09:03:21 51°15.788 2°48.38 7.09036 3.337881 32.643557 3.398717
2003-12-09 09:03:27 51°15.768 2°48.356 7.093205 3.335143 32.613053 3.331298
2003-12-09 09:03:33 51°15.748 2°48.332 7.094923 3.338092 32.647445 3.331298
2003-12-09 09:03:37 51°15.735 2°48.316 7.097768 3.338302 32.651333 3.19646
2003-12-09 09:03:42 51°15.719 2°48.296 7.101202 3.338197 32.65019 3.297589
2003-12-09 09:03:47 51°15.702 2°48.277 7.106255 3.338618 32.652356 3.297589
2003-12-09 09:03:52 51°15.686 2°48.257 7.106255 3.338618 32.652356 3.297589
2003-12-09 09:03:57 51°15.669 2°48.237 7.111111 3.338618 32.653158 3.263879
2003-12-09 09:04:02 51°15.653 2°48.217 7.113808 3.338724 32.652697 3.23017
2003-12-09 09:04:06 51°15.64 2°48.201 7.121018 3.339145 32.653259 3.263879
2003-12-09 09:04:12 51°15.62 2°48.177 7.130335 3.339461 32.654282 3.263879
2003-12-09 09:04:17 51°15.604 2°48.158 7.135238 3.340093 32.656328 3.263879
2003-12-09 09:04:21 51°15.591 2°48.142 7.135238 3.340093 32.656328 3.263879
2003-12-09 09:04:26 51°15.574 2°48.123 7.140239 3.340725 32.659975 3.263879